<?xml version='1.0' encoding='UTF-8'?><gpx version="1.1" creator="JPX - https://github.com/jenetics/jpx" xmlns="http://www.topografix.com/GPX/1/1"><trk><trkseg><trkpt lat="44.842210421380436" lon="11.491888314496252"><ele>11.0</ele><time>2026-05-03T07:32:37.001Z</time></trkpt><trkpt lat="44.84227341138277" lon="11.491737272601101"><ele>11.0</ele><time>2026-05-03T07:32:39.001Z</time></trkpt><trkpt lat="44.842320098583436" lon="11.491637360315297"><ele>11.0</ele><time>2026-05-03T07:32:40.001Z</time></trkpt><trkpt lat="44.84236498367492" lon="11.491542058076236"><ele>11.0</ele><time>2026-05-03T07:32:41.001Z</time></trkpt><trkpt lat="44.842414394994115" lon="11.49143233896372"><ele>11.0</ele><time>2026-05-03T07:32:42.001Z</time></trkpt><trkpt lat="44.842462642024394" lon="11.491323779233863"><ele>11.0</ele><time>2026-05-03T07:32:43.001Z</time></trkpt><trkpt lat="44.84251962154419" lon="11.491204842723407"><ele>11.0</ele><time>2026-05-03T07:32:44.001Z</time></trkpt><trkpt lat="44.84257703209383" lon="11.491079274959953"><ele>11.0</ele><time>2026-05-03T07:32:45.001Z</time></trkpt><trkpt lat="44.84263752214984" lon="11.490951281976095"><ele>11.0</ele><time>2026-05-03T07:32:46Z</time></trkpt><trkpt lat="44.842695392450516" lon="11.490828990843804"><ele>11.0</ele><time>2026-05-03T07:32:47Z</time></trkpt><trkpt lat="44.84275399220896" lon="11.490710735129595"><ele>11.0</ele><time>2026-05-03T07:32:48Z</time></trkpt><trkpt lat="44.84281117917085" lon="11.49058755239142"><ele>11.0</ele><time>2026-05-03T07:32:49Z</time></trkpt><trkpt lat="44.842866847249034" lon="11.490463166265744"><ele>11.0</ele><time>2026-05-03T07:32:50Z</time></trkpt><trkpt lat="44.842920840071805" lon="11.490335569243705"><ele>11.0</ele><time>2026-05-03T07:32:51Z</time></trkpt><trkpt lat="44.84297502345227" lon="11.49021040076365"><ele>11.0</ele><time>2026-05-03T07:32:52Z</time></trkpt><trkpt lat="44.84303047117099" lon="11.490093184319745"><ele>10.833333333333332</ele><time>2026-05-03T07:32:53Z</time></trkpt><trkpt lat="44.84307812659255" lon="11.489988865127732"><ele>10.666666666666666</ele><time>2026-05-03T07:32:54Z</time></trkpt><trkpt lat="44.84311243474022" lon="11.48991225607338"><ele>10.5</ele><time>2026-05-03T07:32:55Z</time></trkpt><trkpt lat="44.84316971329358" lon="11.489785748706689"><ele>10.333333333333334</ele><time>2026-05-03T07:32:57Z</time></trkpt><trkpt lat="44.84321015116955" lon="11.489705100547726"><ele>10.166666666666668</ele><time>2026-05-03T07:32:59Z</time></trkpt><trkpt lat="44.84315382660505" lon="11.48957718372568"><ele>10.0</ele><time>2026-05-03T07:33:04Z</time></trkpt><trkpt lat="44.84308964235765" lon="11.489536342500415"><ele>9.833333333333334</ele><time>2026-05-03T07:33:05Z</time></trkpt><trkpt lat="44.842974626254076" lon="11.489464530768496"><ele>9.666666666666668</ele><time>2026-05-03T07:33:07Z</time></trkpt><trkpt lat="44.84292246618421" lon="11.489401634440496"><ele>9.5</ele><time>2026-05-03T07:33:08Z</time></trkpt><trkpt lat="44.84286156503793" lon="11.489346932517487"><ele>9.333333333333334</ele><time>2026-05-03T07:33:09Z</time></trkpt><trkpt lat="44.84278653832856" lon="11.489285536122546"><ele>9.166666666666666</ele><time>2026-05-03T07:33:10Z</time></trkpt><trkpt lat="44.84271059446312" lon="11.489217185145776"><ele>9.0</ele><time>2026-05-03T07:33:11Z</time></trkpt><trkpt lat="44.842623802392914" lon="11.48914485165125"><ele>9.0</ele><time>2026-05-03T07:33:12Z</time></trkpt><trkpt lat="44.84253223083015" lon="11.489060477393831"><ele>9.0</ele><time>2026-05-03T07:33:13Z</time></trkpt><trkpt lat="44.84243614415429" lon="11.488972129259443"><ele>9.0</ele><time>2026-05-03T07:33:14Z</time></trkpt><trkpt lat="44.84233932712346" lon="11.488880432199322"><ele>9.0</ele><time>2026-05-03T07:33:15Z</time></trkpt><trkpt lat="44.84223641445598" lon="11.488788955406429"><ele>9.0</ele><time>2026-05-03T07:33:16Z</time></trkpt><trkpt lat="44.842124348037025" lon="11.488692017066692"><ele>9.0</ele><time>2026-05-03T07:33:17Z</time></trkpt><trkpt lat="44.8420116699544" lon="11.48860229393104"><ele>9.0</ele><time>2026-05-03T07:33:18Z</time></trkpt><trkpt lat="44.84189251170458" lon="11.48853442831061"><ele>9.0</ele><time>2026-05-03T07:33:19Z</time></trkpt><trkpt lat="44.841766430830305" lon="11.488495349304658"><ele>9.5</ele><time>2026-05-03T07:33:20Z</time></trkpt><trkpt lat="44.841630386184356" lon="11.488484908831675"><ele>10.0</ele><time>2026-05-03T07:33:21Z</time></trkpt><trkpt lat="44.8414823315535" lon="11.488500894139614"><ele>10.5</ele><time>2026-05-03T07:33:22Z</time></trkpt><trkpt lat="44.84133796531119" lon="11.48853205367326"><ele>11.0</ele><time>2026-05-03T07:33:23Z</time></trkpt><trkpt lat="44.84119034095798" lon="11.488568848045585"><ele>11.0</ele><time>2026-05-03T07:33:24Z</time></trkpt><trkpt lat="44.84105221219662" lon="11.48860514493471"><ele>11.0</ele><time>2026-05-03T07:33:25Z</time></trkpt><trkpt lat="44.84091676190828" lon="11.488641091511793"><ele>11.0</ele><time>2026-05-03T07:33:26Z</time></trkpt><trkpt lat="44.84078398566374" lon="11.488673558023123"><ele>11.0</ele><time>2026-05-03T07:33:27Z</time></trkpt><trkpt lat="44.84066078756924" lon="11.488702757306543"><ele>11.200000000000001</ele><time>2026-05-03T07:33:28Z</time></trkpt><trkpt lat="44.84054732986171" lon="11.488727826130646"><ele>11.4</ele><time>2026-05-03T07:33:29Z</time></trkpt><trkpt lat="44.84044410979935" lon="11.488752884043633"><ele>11.6</ele><time>2026-05-03T07:33:30Z</time></trkpt><trkpt lat="44.84034629394702" lon="11.488770954996308"><ele>11.8</ele><time>2026-05-03T07:33:31Z</time></trkpt><trkpt lat="44.840255848126446" lon="11.488786779985466"><ele>12.0</ele><time>2026-05-03T07:33:31.999Z</time></trkpt><trkpt lat="44.84018593417765" lon="11.488797649212216"><ele>12.399999999999999</ele><time>2026-05-03T07:33:32.999Z</time></trkpt><trkpt lat="44.84007421824775" lon="11.48881710933164"><ele>12.799999999999999</ele><time>2026-05-03T07:33:34.999Z</time></trkpt><trkpt lat="44.840000396009906" lon="11.488825006380509"><ele>13.2</ele><time>2026-05-03T07:33:36.999Z</time></trkpt><trkpt lat="44.83992111851606" lon="11.488783222688326"><ele>13.6</ele><time>2026-05-03T07:33:39.999Z</time></trkpt><trkpt lat="44.83985601133569" lon="11.488631495389768"><ele>14.0</ele><time>2026-05-03T07:33:42.999Z</time></trkpt><trkpt lat="44.83983389020303" lon="11.488514006214878"><ele>14.5</ele><time>2026-05-03T07:33:43.999Z</time></trkpt><trkpt lat="44.83980732894807" lon="11.488367662848127"><ele>15.0</ele><time>2026-05-03T07:33:44.999Z</time></trkpt><trkpt lat="44.83977030206619" lon="11.488178061997978"><ele>15.5</ele><time>2026-05-03T07:33:45.999Z</time></trkpt><trkpt lat="44.83972254197369" lon="11.4879394418413"><ele>16.0</ele><time>2026-05-03T07:33:46.999Z</time></trkpt><trkpt lat="44.83966689611224" lon="11.487670588671005"><ele>16.0</ele><time>2026-05-03T07:33:47.999Z</time></trkpt><trkpt lat="44.83960976469695" lon="11.487384750283528"><ele>16.0</ele><time>2026-05-03T07:33:48.999Z</time></trkpt><trkpt lat="44.83954582113429" lon="11.48706710796467"><ele>16.0</ele><time>2026-05-03T07:33:49.999Z</time></trkpt><trkpt lat="44.839479849000035" lon="11.486756616955276"><ele>15.0</ele><time>2026-05-03T07:33:50.999Z</time></trkpt><trkpt lat="44.83940113132802" lon="11.486459158421914"><ele>14.0</ele><time>2026-05-03T07:33:51.999Z</time></trkpt><trkpt lat="44.83932407760652" lon="11.486156927050974"><ele>15.0</ele><time>2026-05-03T07:33:52.999Z</time></trkpt><trkpt lat="44.83924335197472" lon="11.485863725488379"><ele>16.0</ele><time>2026-05-03T07:33:53.999Z</time></trkpt><trkpt lat="44.83914875021444" lon="11.485556050127403"><ele>14.5</ele><time>2026-05-03T07:33:54.999Z</time></trkpt><trkpt lat="44.83905022975872" lon="11.485251068360972"><ele>13.0</ele><time>2026-05-03T07:33:55.999Z</time></trkpt><trkpt lat="44.83894741780085" lon="11.484938083143314"><ele>13.0</ele><time>2026-05-03T07:33:56.999Z</time></trkpt><trkpt lat="44.83883299123914" lon="11.484618031209166"><ele>13.0</ele><time>2026-05-03T07:33:57.999Z</time></trkpt><trkpt lat="44.83873113304906" lon="11.48429780408115"><ele>12.5</ele><time>2026-05-03T07:33:58.999Z</time></trkpt><trkpt lat="44.838613647783426" lon="11.483990594964535"><ele>12.0</ele><time>2026-05-03T07:33:59.999Z</time></trkpt><trkpt lat="44.83849121309831" lon="11.483693920839302"><ele>14.0</ele><time>2026-05-03T07:34:00.999Z</time></trkpt><trkpt lat="44.83836401178676" lon="11.483400048394927"><ele>16.0</ele><time>2026-05-03T07:34:01.999Z</time></trkpt><trkpt lat="44.83821942368047" lon="11.48312391520548"><ele>16.0</ele><time>2026-05-03T07:34:02.999Z</time></trkpt><trkpt lat="44.83810011956794" lon="11.482821417775584"><ele>16.0</ele><time>2026-05-03T07:34:03.999Z</time></trkpt><trkpt lat="44.83795353253291" lon="11.482542886017596"><ele>16.0</ele><time>2026-05-03T07:34:04.999Z</time></trkpt><trkpt lat="44.8378187530169" lon="11.482250690425724"><ele>16.0</ele><time>2026-05-03T07:34:05.999Z</time></trkpt><trkpt lat="44.83766570681288" lon="11.481967126675015"><ele>14.5</ele><time>2026-05-03T07:34:06.999Z</time></trkpt><trkpt lat="44.83749257274126" lon="11.481689882997347"><ele>13.0</ele><time>2026-05-03T07:34:07.999Z</time></trkpt><trkpt lat="44.83732171352526" lon="11.481410118370109"><ele>13.0</ele><time>2026-05-03T07:34:08.999Z</time></trkpt><trkpt lat="44.837163914411015" lon="11.481148455399389"><ele>13.0</ele><time>2026-05-03T07:34:09.999Z</time></trkpt><trkpt lat="44.837006655967706" lon="11.48089784401162"><ele>13.0</ele><time>2026-05-03T07:34:10.999Z</time></trkpt><trkpt lat="44.83685042016455" lon="11.480653922424846"><ele>13.0</ele><time>2026-05-03T07:34:11.999Z</time></trkpt><trkpt lat="44.83669899208277" lon="11.48041379827155"><ele>13.0</ele><time>2026-05-03T07:34:12.999Z</time></trkpt><trkpt lat="44.83654810781419" lon="11.480177867326518"><ele>13.0</ele><time>2026-05-03T07:34:13.999Z</time></trkpt><trkpt lat="44.836402578811395" lon="11.479946809380575"><ele>13.0</ele><time>2026-05-03T07:34:14.999Z</time></trkpt><trkpt lat="44.836255790156656" lon="11.479714504151918"><ele>13.0</ele><time>2026-05-03T07:34:15.999Z</time></trkpt><trkpt lat="44.836111241446034" lon="11.479481546721225"><ele>13.0</ele><time>2026-05-03T07:34:16.999Z</time></trkpt><trkpt lat="44.83596823868583" lon="11.479243294813479"><ele>13.0</ele><time>2026-05-03T07:34:17.999Z</time></trkpt><trkpt lat="44.83583169415573" lon="11.47900296074742"><ele>13.0</ele><time>2026-05-03T07:34:18.999Z</time></trkpt><trkpt lat="44.83570476478695" lon="11.47876230421206"><ele>13.0</ele><time>2026-05-03T07:34:19.999Z</time></trkpt><trkpt lat="44.8355909246925" lon="11.478545646288257"><ele>13.0</ele><time>2026-05-03T07:34:20.999Z</time></trkpt><trkpt lat="44.835487408372344" lon="11.478346344019485"><ele>13.0</ele><time>2026-05-03T07:34:21.999Z</time></trkpt><trkpt lat="44.83538958906554" lon="11.478158022355743"><ele>13.0</ele><time>2026-05-03T07:34:22.999Z</time></trkpt><trkpt lat="44.83529995767454" lon="11.477975323349042"><ele>13.0</ele><time>2026-05-03T07:34:23.999Z</time></trkpt><trkpt lat="44.83520800739242" lon="11.477782055591401"><ele>13.0</ele><time>2026-05-03T07:34:24.999Z</time></trkpt><trkpt lat="44.83511468339101" lon="11.477595108527057"><ele>13.0</ele><time>2026-05-03T07:34:25.999Z</time></trkpt><trkpt lat="44.83502275149046" lon="11.477407426220939"><ele>13.0</ele><time>2026-05-03T07:34:26.999Z</time></trkpt><trkpt lat="44.83493556342352" lon="11.477218698504897"><ele>13.666666666666666</ele><time>2026-05-03T07:34:27.999Z</time></trkpt><trkpt lat="44.834851825844346" lon="11.477028069865247"><ele>14.333333333333332</ele><time>2026-05-03T07:34:28.999Z</time></trkpt><trkpt lat="44.83476918079421" lon="11.476842797123535"><ele>15.0</ele><time>2026-05-03T07:34:29.999Z</time></trkpt><trkpt lat="44.834696755005105" lon="11.476669916197032"><ele>15.0</ele><time>2026-05-03T07:34:30.999Z</time></trkpt><trkpt lat="44.83463131476435" lon="11.476506413587888"><ele>15.0</ele><time>2026-05-03T07:34:31.999Z</time></trkpt><trkpt lat="44.83456868413414" lon="11.476345265074377"><ele>15.0</ele><time>2026-05-03T07:34:32.999Z</time></trkpt><trkpt lat="44.834507942501915" lon="11.476183637903155"><ele>15.0</ele><time>2026-05-03T07:34:33.999Z</time></trkpt><trkpt lat="44.834449629440584" lon="11.476022205774745"><ele>15.0</ele><time>2026-05-03T07:34:34.999Z</time></trkpt><trkpt lat="44.83439254492595" lon="11.475863341293685"><ele>15.0</ele><time>2026-05-03T07:34:35.999Z</time></trkpt><trkpt lat="44.83433567608877" lon="11.475706989836938"><ele>15.0</ele><time>2026-05-03T07:34:36.999Z</time></trkpt><trkpt lat="44.83428121681177" lon="11.475549805788775"><ele>15.0</ele><time>2026-05-03T07:34:37.999Z</time></trkpt><trkpt lat="44.834226223412315" lon="11.475396991867806"><ele>15.0</ele><time>2026-05-03T07:34:38.999Z</time></trkpt><trkpt lat="44.83417337992712" lon="11.475250226308539"><ele>15.0</ele><time>2026-05-03T07:34:39.999Z</time></trkpt><trkpt lat="44.834121108626476" lon="11.475107251704273"><ele>15.0</ele><time>2026-05-03T07:34:40.999Z</time></trkpt><trkpt lat="44.83406735822089" lon="11.474964857312203"><ele>15.0</ele><time>2026-05-03T07:34:42Z</time></trkpt><trkpt lat="44.834016694494906" lon="11.474828463766213"><ele>15.0</ele><time>2026-05-03T07:34:43Z</time></trkpt><trkpt lat="44.83396655204439" lon="11.474688576417648"><ele>15.0</ele><time>2026-05-03T07:34:44Z</time></trkpt><trkpt lat="44.833916277040544" lon="11.474547075960992"><ele>15.0</ele><time>2026-05-03T07:34:45Z</time></trkpt><trkpt lat="44.833873037206104" lon="11.474417536411055"><ele>15.0</ele><time>2026-05-03T07:34:46Z</time></trkpt><trkpt lat="44.833824487089174" lon="11.474283964772502"><ele>15.0</ele><time>2026-05-03T07:34:47Z</time></trkpt><trkpt lat="44.833768812790346" lon="11.474135956689706"><ele>15.0</ele><time>2026-05-03T07:34:48Z</time></trkpt><trkpt lat="44.83371357627464" lon="11.47398487365124"><ele>15.0</ele><time>2026-05-03T07:34:49Z</time></trkpt><trkpt lat="44.83366221898295" lon="11.47384142295339"><ele>15.0</ele><time>2026-05-03T07:34:50Z</time></trkpt><trkpt lat="44.833609739354046" lon="11.473698455526328"><ele>15.0</ele><time>2026-05-03T07:34:51Z</time></trkpt><trkpt lat="44.83355527439413" lon="11.473555883342854"><ele>14.75</ele><time>2026-05-03T07:34:52Z</time></trkpt><trkpt lat="44.83350038050674" lon="11.473415136303961"><ele>14.5</ele><time>2026-05-03T07:34:53Z</time></trkpt><trkpt lat="44.83344888134834" lon="11.47326999172939"><ele>14.25</ele><time>2026-05-03T07:34:54Z</time></trkpt><trkpt lat="44.833392528517344" lon="11.473131441227396"><ele>14.0</ele><time>2026-05-03T07:34:55Z</time></trkpt><trkpt lat="44.833339298245455" lon="11.472983823583842"><ele>14.0</ele><time>2026-05-03T07:34:56Z</time></trkpt><trkpt lat="44.83327925704323" lon="11.472839876447345"><ele>14.0</ele><time>2026-05-03T07:34:57Z</time></trkpt><trkpt lat="44.833221881075715" lon="11.472708008631884"><ele>14.0</ele><time>2026-05-03T07:34:58Z</time></trkpt><trkpt lat="44.83316240874935" lon="11.472556271939823"><ele>14.0</ele><time>2026-05-03T07:34:59Z</time></trkpt><trkpt lat="44.83310822025315" lon="11.472419883682285"><ele>14.0</ele><time>2026-05-03T07:35:00Z</time></trkpt><trkpt lat="44.83304744655875" lon="11.47227812570774"><ele>13.999999999999998</ele><time>2026-05-03T07:35:01Z</time></trkpt><trkpt lat="44.83299022823044" lon="11.472141848915212"><ele>13.999999999999998</ele><time>2026-05-03T07:35:02Z</time></trkpt><trkpt lat="44.832935215634464" lon="11.472019671126656"><ele>14.0</ele><time>2026-05-03T07:35:03Z</time></trkpt><trkpt lat="44.83287136246761" lon="11.47191289429154"><ele>14.0</ele><time>2026-05-03T07:35:04Z</time></trkpt><trkpt lat="44.8328162259862" lon="11.471813985487614"><ele>14.2</ele><time>2026-05-03T07:35:05Z</time></trkpt><trkpt lat="44.83276770348622" lon="11.47171790213543"><ele>14.399999999999999</ele><time>2026-05-03T07:35:06Z</time></trkpt><trkpt lat="44.83272403128494" lon="11.471630037142647"><ele>14.6</ele><time>2026-05-03T07:35:07Z</time></trkpt><trkpt lat="44.832674407890615" lon="11.471562754917517"><ele>14.8</ele><time>2026-05-03T07:35:08Z</time></trkpt><trkpt lat="44.83254357101025" lon="11.471577064647251"><ele>15.0</ele><time>2026-05-03T07:35:10Z</time></trkpt><trkpt lat="44.83246005297309" lon="11.471649596541269"><ele>15.0</ele><time>2026-05-03T07:35:11Z</time></trkpt><trkpt lat="44.832364226041854" lon="11.47173736317365"><ele>15.0</ele><time>2026-05-03T07:35:12Z</time></trkpt><trkpt lat="44.83224497302178" lon="11.471847971492194"><ele>15.0</ele><time>2026-05-03T07:35:13Z</time></trkpt><trkpt lat="44.83210854131659" lon="11.471977949859914"><ele>15.0</ele><time>2026-05-03T07:35:14Z</time></trkpt><trkpt lat="44.83195854863075" lon="11.472121270254343"><ele>14.666666666666668</ele><time>2026-05-03T07:35:15Z</time></trkpt><trkpt lat="44.831791868248544" lon="11.472275977879663"><ele>14.333333333333334</ele><time>2026-05-03T07:35:16Z</time></trkpt><trkpt lat="44.83159570589202" lon="11.472458917208295"><ele>14.0</ele><time>2026-05-03T07:35:17Z</time></trkpt><trkpt lat="44.831395430781384" lon="11.472640197586369"><ele>14.0</ele><time>2026-05-03T07:35:18Z</time></trkpt><trkpt lat="44.83118293900502" lon="11.472833830974428"><ele>14.0</ele><time>2026-05-03T07:35:19Z</time></trkpt><trkpt lat="44.83095849614671" lon="11.47304304314057"><ele>13.0</ele><time>2026-05-03T07:35:20Z</time></trkpt><trkpt lat="44.830726549369956" lon="11.473258562685196"><ele>12.0</ele><time>2026-05-03T07:35:21Z</time></trkpt><trkpt lat="44.830484087953295" lon="11.473479515106371"><ele>12.0</ele><time>2026-05-03T07:35:22Z</time></trkpt><trkpt lat="44.830234274009996" lon="11.473707275670733"><ele>12.0</ele><time>2026-05-03T07:35:23Z</time></trkpt><trkpt lat="44.829991471522625" lon="11.473930822704244"><ele>12.0</ele><time>2026-05-03T07:35:24Z</time></trkpt><trkpt lat="44.82974698792714" lon="11.474156956524546"><ele>12.0</ele><time>2026-05-03T07:35:25Z</time></trkpt><trkpt lat="44.82950040765668" lon="11.474387125428276"><ele>12.0</ele><time>2026-05-03T07:35:25.999Z</time></trkpt><trkpt lat="44.82924859042262" lon="11.474621971281454"><ele>12.0</ele><time>2026-05-03T07:35:26.999Z</time></trkpt><trkpt lat="44.82899001855201" lon="11.47486143306297"><ele>12.0</ele><time>2026-05-03T07:35:27.999Z</time></trkpt><trkpt lat="44.828737279460576" lon="11.475093864545316"><ele>12.0</ele><time>2026-05-03T07:35:28.999Z</time></trkpt><trkpt lat="44.828490403521705" lon="11.475322430382208"><ele>11.0</ele><time>2026-05-03T07:35:29.999Z</time></trkpt><trkpt lat="44.82824703047415" lon="11.475549318595656"><ele>10.0</ele><time>2026-05-03T07:35:30.999Z</time></trkpt><trkpt lat="44.827995980409014" lon="11.475778227485637"><ele>10.0</ele><time>2026-05-03T07:35:31.999Z</time></trkpt><trkpt lat="44.82774784731573" lon="11.476008888720427"><ele>10.0</ele><time>2026-05-03T07:35:32.999Z</time></trkpt><trkpt lat="44.827495275090506" lon="11.476247033667587"><ele>10.5</ele><time>2026-05-03T07:35:33.999Z</time></trkpt><trkpt lat="44.827239034659186" lon="11.4764617602481"><ele>11.0</ele><time>2026-05-03T07:35:34.999Z</time></trkpt><trkpt lat="44.826985844883524" lon="11.476696148686095"><ele>10.5</ele><time>2026-05-03T07:35:35.999Z</time></trkpt><trkpt lat="44.826731039756595" lon="11.476930979638347"><ele>10.0</ele><time>2026-05-03T07:35:36.999Z</time></trkpt><trkpt lat="44.82648275925851" lon="11.477176688714232"><ele>10.0</ele><time>2026-05-03T07:35:37.999Z</time></trkpt><trkpt lat="44.82622781683589" lon="11.477406237597625"><ele>10.0</ele><time>2026-05-03T07:35:38.999Z</time></trkpt><trkpt lat="44.825976434534574" lon="11.477636508905958"><ele>9.5</ele><time>2026-05-03T07:35:39.999Z</time></trkpt><trkpt lat="44.825724544983395" lon="11.47786486128226"><ele>9.0</ele><time>2026-05-03T07:35:40.999Z</time></trkpt><trkpt lat="44.82547553660185" lon="11.478097350307465"><ele>9.0</ele><time>2026-05-03T07:35:41.999Z</time></trkpt><trkpt lat="44.82522812436108" lon="11.478329561673018"><ele>9.0</ele><time>2026-05-03T07:35:42.999Z</time></trkpt><trkpt lat="44.82500610499625" lon="11.478548443762683"><ele>8.5</ele><time>2026-05-03T07:35:43.999Z</time></trkpt><trkpt lat="44.82479070532938" lon="11.478719144335235"><ele>8.0</ele><time>2026-05-03T07:35:44.999Z</time></trkpt><trkpt lat="44.82458915266006" lon="11.478883321609343"><ele>9.0</ele><time>2026-05-03T07:35:45.999Z</time></trkpt><trkpt lat="44.82438108376473" lon="11.479015917501384"><ele>10.0</ele><time>2026-05-03T07:35:46.999Z</time></trkpt><trkpt lat="44.82416367392039" lon="11.479116507693844"><ele>11.0</ele><time>2026-05-03T07:35:47.999Z</time></trkpt><trkpt lat="44.82394238097813" lon="11.479190759458733"><ele>12.0</ele><time>2026-05-03T07:35:48.999Z</time></trkpt><trkpt lat="44.82371972424751" lon="11.47922505875096"><ele>12.0</ele><time>2026-05-03T07:35:49.999Z</time></trkpt><trkpt lat="44.823485007937485" lon="11.47923014955101"><ele>12.0</ele><time>2026-05-03T07:35:50.999Z</time></trkpt><trkpt lat="44.82324837432377" lon="11.47919947408834"><ele>11.5</ele><time>2026-05-03T07:35:51.999Z</time></trkpt><trkpt lat="44.82300123686931" lon="11.479130832339074"><ele>11.0</ele><time>2026-05-03T07:35:52.999Z</time></trkpt><trkpt lat="44.82276564387235" lon="11.479031489562804"><ele>10.0</ele><time>2026-05-03T07:35:53.999Z</time></trkpt><trkpt lat="44.822518573450886" lon="11.478919909315126"><ele>9.0</ele><time>2026-05-03T07:35:54.999Z</time></trkpt><trkpt lat="44.82228432700154" lon="11.47882022364502"><ele>8.5</ele><time>2026-05-03T07:35:55.999Z</time></trkpt><trkpt lat="44.82206072918512" lon="11.478760382821953"><ele>8.0</ele><time>2026-05-03T07:35:56.999Z</time></trkpt><trkpt lat="44.82183460080528" lon="11.478753224782809"><ele>8.0</ele><time>2026-05-03T07:35:57.999Z</time></trkpt><trkpt lat="44.82160895346961" lon="11.478757605848866"><ele>8.0</ele><time>2026-05-03T07:35:58.999Z</time></trkpt><trkpt lat="44.82138021017749" lon="11.478796854239132"><ele>8.0</ele><time>2026-05-03T07:35:59.999Z</time></trkpt><trkpt lat="44.82114582659334" lon="11.478851996552343"><ele>8.0</ele><time>2026-05-03T07:36:00.999Z</time></trkpt><trkpt lat="44.82092381562401" lon="11.478983365231858"><ele>8.0</ele><time>2026-05-03T07:36:01.999Z</time></trkpt><trkpt lat="44.82070314083728" lon="11.479128766234334"><ele>8.0</ele><time>2026-05-03T07:36:02.999Z</time></trkpt><trkpt lat="44.820492791101046" lon="11.479306956053845"><ele>8.0</ele><time>2026-05-03T07:36:03.999Z</time></trkpt><trkpt lat="44.82029596888995" lon="11.479516761744652"><ele>8.0</ele><time>2026-05-03T07:36:04.999Z</time></trkpt><trkpt lat="44.82011550835267" lon="11.479757467789838"><ele>8.5</ele><time>2026-05-03T07:36:05.999Z</time></trkpt><trkpt lat="44.81995259132428" lon="11.48003587763912"><ele>9.0</ele><time>2026-05-03T07:36:06.999Z</time></trkpt><trkpt lat="44.81980428151539" lon="11.480342905189122"><ele>9.5</ele><time>2026-05-03T07:36:07.999Z</time></trkpt><trkpt lat="44.819673278523524" lon="11.48067506722548"><ele>10.0</ele><time>2026-05-03T07:36:08.999Z</time></trkpt><trkpt lat="44.819540458308786" lon="11.481026455572497"><ele>10.0</ele><time>2026-05-03T07:36:09.999Z</time></trkpt><trkpt lat="44.81940067009026" lon="11.481373968011768"><ele>10.0</ele><time>2026-05-03T07:36:10.999Z</time></trkpt><trkpt lat="44.81925726503852" lon="11.481725452486893"><ele>9.5</ele><time>2026-05-03T07:36:11.999Z</time></trkpt><trkpt lat="44.81911106680914" lon="11.482078003520211"><ele>9.0</ele><time>2026-05-03T07:36:12.999Z</time></trkpt><trkpt lat="44.8189668084683" lon="11.482432198577825"><ele>9.0</ele><time>2026-05-03T07:36:13.999Z</time></trkpt><trkpt lat="44.81882263717097" lon="11.482788392350194"><ele>9.0</ele><time>2026-05-03T07:36:14.999Z</time></trkpt><trkpt lat="44.81867770010458" lon="11.48314254895113"><ele>9.5</ele><time>2026-05-03T07:36:15.999Z</time></trkpt><trkpt lat="44.818534061812514" lon="11.483497009508048"><ele>10.0</ele><time>2026-05-03T07:36:16.999Z</time></trkpt><trkpt lat="44.818391233792894" lon="11.483849519403883"><ele>10.0</ele><time>2026-05-03T07:36:17.999Z</time></trkpt><trkpt lat="44.81825223798027" lon="11.484197485490888"><ele>10.0</ele><time>2026-05-03T07:36:18.999Z</time></trkpt><trkpt lat="44.818113065701404" lon="11.484541188844256"><ele>10.0</ele><time>2026-05-03T07:36:19.999Z</time></trkpt><trkpt lat="44.81798068291699" lon="11.484861992444973"><ele>10.0</ele><time>2026-05-03T07:36:20.999Z</time></trkpt><trkpt lat="44.81786552705195" lon="11.485161551755324"><ele>10.0</ele><time>2026-05-03T07:36:21.999Z</time></trkpt><trkpt lat="44.81775039871273" lon="11.485448760676714"><ele>10.0</ele><time>2026-05-03T07:36:22.999Z</time></trkpt><trkpt lat="44.81763606904474" lon="11.485725534472884"><ele>10.0</ele><time>2026-05-03T07:36:23.999Z</time></trkpt><trkpt lat="44.81753321898651" lon="11.485980485193814"><ele>10.0</ele><time>2026-05-03T07:36:24.999Z</time></trkpt><trkpt lat="44.8174366204735" lon="11.486221584064802"><ele>10.0</ele><time>2026-05-03T07:36:25.999Z</time></trkpt><trkpt lat="44.81733942998652" lon="11.486456184274404"><ele>9.666666666666668</ele><time>2026-05-03T07:36:26.999Z</time></trkpt><trkpt lat="44.81723928154279" lon="11.486675235453163"><ele>9.333333333333334</ele><time>2026-05-03T07:36:27.999Z</time></trkpt><trkpt lat="44.81712188975017" lon="11.486875201395124"><ele>9.0</ele><time>2026-05-03T07:36:28.999Z</time></trkpt><trkpt lat="44.81698470115092" lon="11.48704106604523"><ele>9.0</ele><time>2026-05-03T07:36:29.999Z</time></trkpt><trkpt lat="44.816826254822345" lon="11.48715722510814"><ele>9.0</ele><time>2026-05-03T07:36:30.999Z</time></trkpt><trkpt lat="44.816662177390086" lon="11.487216102704961"><ele>9.0</ele><time>2026-05-03T07:36:31.999Z</time></trkpt><trkpt lat="44.81648750337347" lon="11.487226586852506"><ele>9.0</ele><time>2026-05-03T07:36:32.999Z</time></trkpt><trkpt lat="44.81631099170092" lon="11.487193957087477"><ele>9.0</ele><time>2026-05-03T07:36:33.999Z</time></trkpt><trkpt lat="44.81613761600675" lon="11.487110597991158"><ele>9.0</ele><time>2026-05-03T07:36:34.999Z</time></trkpt><trkpt lat="44.81598842842389" lon="11.486990610770686"><ele>9.0</ele><time>2026-05-03T07:36:35.999Z</time></trkpt><trkpt lat="44.81584093475579" lon="11.486818270326019"><ele>9.0</ele><time>2026-05-03T07:36:36.999Z</time></trkpt><trkpt lat="44.815693900543245" lon="11.486610779045114"><ele>9.0</ele><time>2026-05-03T07:36:37.999Z</time></trkpt><trkpt lat="44.815530132785156" lon="11.486393010420779"><ele>9.0</ele><time>2026-05-03T07:36:38.999Z</time></trkpt><trkpt lat="44.815361848887314" lon="11.486163728200298"><ele>9.0</ele><time>2026-05-03T07:36:39.999Z</time></trkpt><trkpt lat="44.815190601687476" lon="11.485923614984099"><ele>9.0</ele><time>2026-05-03T07:36:40.999Z</time></trkpt><trkpt lat="44.81504116099574" lon="11.485708768363954"><ele>9.0</ele><time>2026-05-03T07:36:41.999Z</time></trkpt><trkpt lat="44.81490415470593" lon="11.485510411140043"><ele>9.0</ele><time>2026-05-03T07:36:42.999Z</time></trkpt><trkpt lat="44.814764468142414" lon="11.485313792672455"><ele>9.0</ele><time>2026-05-03T07:36:43.999Z</time></trkpt><trkpt lat="44.81461644331615" lon="11.485108310354347"><ele>9.0</ele><time>2026-05-03T07:36:44.999Z</time></trkpt><trkpt lat="44.814462487148965" lon="11.484898021036539"><ele>9.0</ele><time>2026-05-03T07:36:45.999Z</time></trkpt><trkpt lat="44.814301194418995" lon="11.48468821556009"><ele>8.5</ele><time>2026-05-03T07:36:46.999Z</time></trkpt><trkpt lat="44.81413025574919" lon="11.484470891366142"><ele>8.0</ele><time>2026-05-03T07:36:48Z</time></trkpt><trkpt lat="44.81395550874622" lon="11.484237713234135"><ele>8.0</ele><time>2026-05-03T07:36:49Z</time></trkpt><trkpt lat="44.81378056129792" lon="11.483991590758357"><ele>8.0</ele><time>2026-05-03T07:36:50Z</time></trkpt><trkpt lat="44.81359885247002" lon="11.48372877864964"><ele>8.5</ele><time>2026-05-03T07:36:51Z</time></trkpt><trkpt lat="44.81341144579443" lon="11.48346081226117"><ele>9.0</ele><time>2026-05-03T07:36:52Z</time></trkpt><trkpt lat="44.81321688662552" lon="11.483187131111286"><ele>8.5</ele><time>2026-05-03T07:36:53Z</time></trkpt><trkpt lat="44.81303150044009" lon="11.482916800036813"><ele>8.0</ele><time>2026-05-03T07:36:54Z</time></trkpt><trkpt lat="44.81283643090309" lon="11.482651565768874"><ele>9.0</ele><time>2026-05-03T07:36:55Z</time></trkpt><trkpt lat="44.81264023652193" lon="11.482383035972997"><ele>10.0</ele><time>2026-05-03T07:36:56Z</time></trkpt><trkpt lat="44.812443531255376" lon="11.48211451494037"><ele>9.5</ele><time>2026-05-03T07:36:57Z</time></trkpt><trkpt lat="44.81224758532228" lon="11.481843172718643"><ele>9.0</ele><time>2026-05-03T07:36:58Z</time></trkpt><trkpt lat="44.812050253993355" lon="11.481570081823257"><ele>9.0</ele><time>2026-05-03T07:36:59Z</time></trkpt><trkpt lat="44.8118524536875" lon="11.481297535597431"><ele>9.0</ele><time>2026-05-03T07:37:00Z</time></trkpt><trkpt lat="44.811653285737854" lon="11.481023803973144"><ele>8.0</ele><time>2026-05-03T07:37:01Z</time></trkpt><trkpt lat="44.811455795649216" lon="11.480750275196788"><ele>7.0</ele><time>2026-05-03T07:37:02Z</time></trkpt><trkpt lat="44.81125853987147" lon="11.480475545863735"><ele>7.5</ele><time>2026-05-03T07:37:03Z</time></trkpt><trkpt lat="44.8110608019548" lon="11.480203008591701"><ele>8.0</ele><time>2026-05-03T07:37:04Z</time></trkpt><trkpt lat="44.81086263194437" lon="11.479930980903811"><ele>8.5</ele><time>2026-05-03T07:37:05Z</time></trkpt><trkpt lat="44.81066319079522" lon="11.47965585874362"><ele>9.0</ele><time>2026-05-03T07:37:06Z</time></trkpt><trkpt lat="44.810468906735586" lon="11.479381287188462"><ele>9.0</ele><time>2026-05-03T07:37:07Z</time></trkpt><trkpt lat="44.81027628498449" lon="11.479109120720539"><ele>9.0</ele><time>2026-05-03T07:37:08Z</time></trkpt><trkpt lat="44.81008174373443" lon="11.478836789985582"><ele>8.5</ele><time>2026-05-03T07:37:09Z</time></trkpt><trkpt lat="44.80988442416367" lon="11.478563407896349"><ele>8.0</ele><time>2026-05-03T07:37:10Z</time></trkpt><trkpt lat="44.80969260955545" lon="11.478297989934008"><ele>8.0</ele><time>2026-05-03T07:37:11Z</time></trkpt><trkpt lat="44.80951122957491" lon="11.478048148535818"><ele>8.0</ele><time>2026-05-03T07:37:12Z</time></trkpt><trkpt lat="44.80934222557492" lon="11.477818772295295"><ele>8.0</ele><time>2026-05-03T07:37:13Z</time></trkpt><trkpt lat="44.80917879589231" lon="11.477601243392433"><ele>8.0</ele><time>2026-05-03T07:37:14Z</time></trkpt><trkpt lat="44.80901286482004" lon="11.477397694104694"><ele>8.0</ele><time>2026-05-03T07:37:15Z</time></trkpt><trkpt lat="44.80884270417956" lon="11.477215881745755"><ele>8.0</ele><time>2026-05-03T07:37:16Z</time></trkpt><trkpt lat="44.8086673373125" lon="11.47705424384903"><ele>8.0</ele><time>2026-05-03T07:37:17Z</time></trkpt><trkpt lat="44.80847975654227" lon="11.476921544878271"><ele>8.0</ele><time>2026-05-03T07:37:18Z</time></trkpt><trkpt lat="44.808281364832865" lon="11.476807421842393"><ele>8.0</ele><time>2026-05-03T07:37:19Z</time></trkpt><trkpt lat="44.80807186559406" lon="11.476720654984485"><ele>8.0</ele><time>2026-05-03T07:37:20Z</time></trkpt><trkpt lat="44.807855847942314" lon="11.476662321601365"><ele>8.0</ele><time>2026-05-03T07:37:21Z</time></trkpt><trkpt lat="44.80764109467833" lon="11.476633728795036"><ele>7.666666666666666</ele><time>2026-05-03T07:37:22Z</time></trkpt><trkpt lat="44.8074310580966" lon="11.476637554303894"><ele>7.333333333333334</ele><time>2026-05-03T07:37:23Z</time></trkpt><trkpt lat="44.80721811875556" lon="11.476668291020108"><ele>7.0</ele><time>2026-05-03T07:37:24Z</time></trkpt><trkpt lat="44.80700376925073" lon="11.476724768304573"><ele>7.5</ele><time>2026-05-03T07:37:25Z</time></trkpt><trkpt lat="44.80678782176237" lon="11.47681036762103"><ele>8.0</ele><time>2026-05-03T07:37:26Z</time></trkpt><trkpt lat="44.80657790218154" lon="11.476926959151687"><ele>8.0</ele><time>2026-05-03T07:37:27Z</time></trkpt><trkpt lat="44.806369035414264" lon="11.477072745116521"><ele>8.0</ele><time>2026-05-03T07:37:28Z</time></trkpt><trkpt lat="44.80616114028997" lon="11.47724062515961"><ele>8.0</ele><time>2026-05-03T07:37:29Z</time></trkpt><trkpt lat="44.80594542133092" lon="11.477414713737828"><ele>8.0</ele><time>2026-05-03T07:37:30Z</time></trkpt><trkpt lat="44.80572306833439" lon="11.477590128755136"><ele>8.0</ele><time>2026-05-03T07:37:31Z</time></trkpt><trkpt lat="44.80549499219545" lon="11.477767657816145"><ele>8.0</ele><time>2026-05-03T07:37:32Z</time></trkpt><trkpt lat="44.805254651831504" lon="11.477954987907344"><ele>7.5</ele><time>2026-05-03T07:37:33Z</time></trkpt><trkpt lat="44.80501212560933" lon="11.478146348656356"><ele>7.0</ele><time>2026-05-03T07:37:34Z</time></trkpt><trkpt lat="44.80476428110335" lon="11.478341213305493"><ele>7.0</ele><time>2026-05-03T07:37:35Z</time></trkpt><trkpt lat="44.80450598427671" lon="11.4785405565919"><ele>7.0</ele><time>2026-05-03T07:37:36Z</time></trkpt><trkpt lat="44.80423806902096" lon="11.478747929692794"><ele>7.5</ele><time>2026-05-03T07:37:37Z</time></trkpt><trkpt lat="44.803966525856964" lon="11.47895942359063"><ele>8.0</ele><time>2026-05-03T07:37:38Z</time></trkpt><trkpt lat="44.803709183869074" lon="11.479160691868671"><ele>7.5</ele><time>2026-05-03T07:37:39Z</time></trkpt><trkpt lat="44.80345393236956" lon="11.479358403173798"><ele>7.0</ele><time>2026-05-03T07:37:40Z</time></trkpt><trkpt lat="44.80320037192379" lon="11.479554910584369"><ele>7.0</ele><time>2026-05-03T07:37:41Z</time></trkpt><trkpt lat="44.80295557085554" lon="11.479751824299724"><ele>7.0</ele><time>2026-05-03T07:37:41.999Z</time></trkpt><trkpt lat="44.80271310276843" lon="11.47994436185132"><ele>7.0</ele><time>2026-05-03T07:37:42.999Z</time></trkpt><trkpt lat="44.8024684119531" lon="11.480135952363199"><ele>7.0</ele><time>2026-05-03T07:37:43.999Z</time></trkpt><trkpt lat="44.802228222983864" lon="11.480330051873823"><ele>7.5</ele><time>2026-05-03T07:37:44.999Z</time></trkpt><trkpt lat="44.80198443300502" lon="11.480526256419038"><ele>8.0</ele><time>2026-05-03T07:37:45.999Z</time></trkpt><trkpt lat="44.801747014852346" lon="11.480716927386467"><ele>8.5</ele><time>2026-05-03T07:37:46.999Z</time></trkpt><trkpt lat="44.80150662657176" lon="11.480907951091812"><ele>9.0</ele><time>2026-05-03T07:37:47.999Z</time></trkpt><trkpt lat="44.80126990107587" lon="11.481091769739049"><ele>9.0</ele><time>2026-05-03T07:37:48.999Z</time></trkpt><trkpt lat="44.801033383077225" lon="11.481277269235752"><ele>9.0</ele><time>2026-05-03T07:37:49.999Z</time></trkpt><trkpt lat="44.800799221013165" lon="11.481463923119652"><ele>9.0</ele><time>2026-05-03T07:37:50.999Z</time></trkpt><trkpt lat="44.800568741236205" lon="11.481649401195924"><ele>9.0</ele><time>2026-05-03T07:37:51.999Z</time></trkpt><trkpt lat="44.80033680672451" lon="11.481836378486586"><ele>9.0</ele><time>2026-05-03T07:37:52.999Z</time></trkpt><trkpt lat="44.80009598221227" lon="11.482002461589074"><ele>9.0</ele><time>2026-05-03T07:37:53.999Z</time></trkpt><trkpt lat="44.799867845851" lon="11.48218606773828"><ele>9.0</ele><time>2026-05-03T07:37:54.999Z</time></trkpt><trkpt lat="44.799639410857026" lon="11.482392263334125"><ele>9.0</ele><time>2026-05-03T07:37:55.999Z</time></trkpt><trkpt lat="44.799406909000645" lon="11.48257892037423"><ele>8.0</ele><time>2026-05-03T07:37:56.999Z</time></trkpt><trkpt lat="44.799174259758765" lon="11.482766044428205"><ele>7.0</ele><time>2026-05-03T07:37:57.999Z</time></trkpt><trkpt lat="44.79893998711445" lon="11.48295513873958"><ele>7.0</ele><time>2026-05-03T07:37:58.999Z</time></trkpt><trkpt lat="44.798706521225725" lon="11.483143411344788"><ele>7.0</ele><time>2026-05-03T07:37:59.999Z</time></trkpt><trkpt lat="44.79847260358766" lon="11.48333284002281"><ele>7.5</ele><time>2026-05-03T07:38:00.999Z</time></trkpt><trkpt lat="44.7982397758349" lon="11.48351831969674"><ele>8.0</ele><time>2026-05-03T07:38:01.999Z</time></trkpt><trkpt lat="44.798007162114814" lon="11.483706608130197"><ele>8.0</ele><time>2026-05-03T07:38:02.999Z</time></trkpt><trkpt lat="44.79776525605216" lon="11.483908187938411"><ele>8.0</ele><time>2026-05-03T07:38:03.999Z</time></trkpt><trkpt lat="44.797519594060205" lon="11.48411731764041"><ele>7.5</ele><time>2026-05-03T07:38:04.999Z</time></trkpt><trkpt lat="44.797277149314304" lon="11.484321529203358"><ele>7.0</ele><time>2026-05-03T07:38:05.999Z</time></trkpt><trkpt lat="44.79704474825988" lon="11.484518386029988"><ele>6.0</ele><time>2026-05-03T07:38:06.999Z</time></trkpt><trkpt lat="44.79681664568833" lon="11.484681010637175"><ele>5.0</ele><time>2026-05-03T07:38:07.999Z</time></trkpt><trkpt lat="44.79659344805346" lon="11.484888298305306"><ele>5.0</ele><time>2026-05-03T07:38:08.999Z</time></trkpt><trkpt lat="44.79637133676652" lon="11.485068049044433"><ele>5.0</ele><time>2026-05-03T07:38:09.999Z</time></trkpt><trkpt lat="44.79614580967606" lon="11.48525217836454"><ele>6.0</ele><time>2026-05-03T07:38:10.999Z</time></trkpt><trkpt lat="44.79591936502882" lon="11.485437858897283"><ele>7.0</ele><time>2026-05-03T07:38:11.999Z</time></trkpt><trkpt lat="44.795694620684436" lon="11.485621523070241"><ele>7.0</ele><time>2026-05-03T07:38:12.999Z</time></trkpt><trkpt lat="44.79547126940528" lon="11.485806034572088"><ele>7.0</ele><time>2026-05-03T07:38:13.999Z</time></trkpt><trkpt lat="44.79524556051727" lon="11.485990081382107"><ele>8.0</ele><time>2026-05-03T07:38:14.999Z</time></trkpt><trkpt lat="44.79502395817978" lon="11.48617261090901"><ele>9.0</ele><time>2026-05-03T07:38:15.999Z</time></trkpt><trkpt lat="44.794799824612426" lon="11.486358930627718"><ele>9.0</ele><time>2026-05-03T07:38:16.999Z</time></trkpt><trkpt lat="44.79457512244131" lon="11.486544850328299"><ele>9.0</ele><time>2026-05-03T07:38:17.999Z</time></trkpt><trkpt lat="44.794352089397115" lon="11.486733645180427"><ele>8.5</ele><time>2026-05-03T07:38:18.999Z</time></trkpt><trkpt lat="44.79412930149927" lon="11.48691962024561"><ele>8.0</ele><time>2026-05-03T07:38:19.999Z</time></trkpt><trkpt lat="44.79390460056335" lon="11.48710269434969"><ele>8.0</ele><time>2026-05-03T07:38:20.999Z</time></trkpt><trkpt lat="44.79368316518316" lon="11.487287048021491"><ele>8.0</ele><time>2026-05-03T07:38:21.999Z</time></trkpt><trkpt lat="44.793461338749125" lon="11.487474880489321"><ele>8.5</ele><time>2026-05-03T07:38:22.999Z</time></trkpt><trkpt lat="44.79324174235927" lon="11.487664106348868"><ele>9.0</ele><time>2026-05-03T07:38:23.999Z</time></trkpt><trkpt lat="44.79302614225079" lon="11.487849418244632"><ele>9.0</ele><time>2026-05-03T07:38:24.999Z</time></trkpt><trkpt lat="44.79281134145517" lon="11.488037469721583"><ele>9.0</ele><time>2026-05-03T07:38:25.999Z</time></trkpt><trkpt lat="44.79259813408077" lon="11.488213410022606"><ele>8.666666666666666</ele><time>2026-05-03T07:38:26.999Z</time></trkpt><trkpt lat="44.7924013407147" lon="11.488376194855897"><ele>8.333333333333332</ele><time>2026-05-03T07:38:27.999Z</time></trkpt><trkpt lat="44.79221807448371" lon="11.488526071658304"><ele>8.0</ele><time>2026-05-03T07:38:28.999Z</time></trkpt><trkpt lat="44.79203531886801" lon="11.488672349438897"><ele>7.666666666666666</ele><time>2026-05-03T07:38:29.999Z</time></trkpt><trkpt lat="44.791851723809216" lon="11.488817696216072"><ele>7.333333333333334</ele><time>2026-05-03T07:38:30.999Z</time></trkpt><trkpt lat="44.791675885613294" lon="11.488953666753373"><ele>7.0</ele><time>2026-05-03T07:38:31.999Z</time></trkpt><trkpt lat="44.79150482328365" lon="11.48908563737162"><ele>7.0</ele><time>2026-05-03T07:38:32.999Z</time></trkpt><trkpt lat="44.791341771337365" lon="11.489209753655764"><ele>7.0</ele><time>2026-05-03T07:38:33.999Z</time></trkpt><trkpt lat="44.791193705185215" lon="11.489325167083557"><ele>7.0</ele><time>2026-05-03T07:38:34.999Z</time></trkpt><trkpt lat="44.791053329261466" lon="11.489434622360912"><ele>7.0</ele><time>2026-05-03T07:38:35.999Z</time></trkpt><trkpt lat="44.790923997074714" lon="11.489532414632786"><ele>7.0</ele><time>2026-05-03T07:38:36.999Z</time></trkpt><trkpt lat="44.79080108140522" lon="11.489620217192797"><ele>7.0</ele><time>2026-05-03T07:38:37.999Z</time></trkpt><trkpt lat="44.790686292371284" lon="11.48969664851088"><ele>7.0</ele><time>2026-05-03T07:38:38.999Z</time></trkpt><trkpt lat="44.790576200045365" lon="11.48976897228614"><ele>7.25</ele><time>2026-05-03T07:38:39.999Z</time></trkpt><trkpt lat="44.790462740410334" lon="11.489840130224039"><ele>7.5</ele><time>2026-05-03T07:38:40.999Z</time></trkpt><trkpt lat="44.790340453916535" lon="11.489906064372208"><ele>7.75</ele><time>2026-05-03T07:38:41.999Z</time></trkpt><trkpt lat="44.79020679953287" lon="11.489982229330712"><ele>8.0</ele><time>2026-05-03T07:38:42.999Z</time></trkpt><trkpt lat="44.790069512181645" lon="11.490060302513573"><ele>8.333333333333332</ele><time>2026-05-03T07:38:43.999Z</time></trkpt><trkpt lat="44.78991684979088" lon="11.490148445947876"><ele>8.666666666666666</ele><time>2026-05-03T07:38:44.999Z</time></trkpt><trkpt lat="44.78975255625475" lon="11.490249187530104"><ele>9.0</ele><time>2026-05-03T07:38:45.999Z</time></trkpt><trkpt lat="44.789579213621764" lon="11.490351644603326"><ele>8.666666666666666</ele><time>2026-05-03T07:38:46.999Z</time></trkpt><trkpt lat="44.78939706902895" lon="11.490459149814829"><ele>8.333333333333332</ele><time>2026-05-03T07:38:47.999Z</time></trkpt><trkpt lat="44.78920534411697" lon="11.490572101056522"><ele>8.0</ele><time>2026-05-03T07:38:48.999Z</time></trkpt><trkpt lat="44.789002532050006" lon="11.490700920019574"><ele>7.666666666666666</ele><time>2026-05-03T07:38:49.999Z</time></trkpt><trkpt lat="44.788807171314495" lon="11.490825997073891"><ele>7.333333333333334</ele><time>2026-05-03T07:38:50.999Z</time></trkpt><trkpt lat="44.78861371181042" lon="11.490950131755715"><ele>7.0</ele><time>2026-05-03T07:38:51.999Z</time></trkpt><trkpt lat="44.7884301229684" lon="11.491089873925882"><ele>7.0</ele><time>2026-05-03T07:38:52.999Z</time></trkpt><trkpt lat="44.78825221328778" lon="11.491257100236624"><ele>7.0</ele><time>2026-05-03T07:38:54Z</time></trkpt><trkpt lat="44.78808287177888" lon="11.491453225105218"><ele>7.0</ele><time>2026-05-03T07:38:55Z</time></trkpt><trkpt lat="44.78791143106536" lon="11.491655818643375"><ele>6.5</ele><time>2026-05-03T07:38:56Z</time></trkpt><trkpt lat="44.787736018595474" lon="11.49185666877008"><ele>6.0</ele><time>2026-05-03T07:38:57Z</time></trkpt><trkpt lat="44.78755484865438" lon="11.492060030269922"><ele>6.5</ele><time>2026-05-03T07:38:58Z</time></trkpt><trkpt lat="44.7873687836331" lon="11.492265410883345"><ele>7.0</ele><time>2026-05-03T07:38:59Z</time></trkpt><trkpt lat="44.787192301037514" lon="11.492453752573013"><ele>7.0</ele><time>2026-05-03T07:39:00Z</time></trkpt><trkpt lat="44.7870112649617" lon="11.492637089325221"><ele>7.0</ele><time>2026-05-03T07:39:01Z</time></trkpt><trkpt lat="44.78682047317349" lon="11.492816741799219"><ele>7.5</ele><time>2026-05-03T07:39:02Z</time></trkpt><trkpt lat="44.78662421526435" lon="11.492989653389438"><ele>8.0</ele><time>2026-05-03T07:39:03Z</time></trkpt><trkpt lat="44.78642718624648" lon="11.493152172669271"><ele>8.0</ele><time>2026-05-03T07:39:04Z</time></trkpt><trkpt lat="44.786232648487214" lon="11.493301386641537"><ele>8.0</ele><time>2026-05-03T07:39:05Z</time></trkpt><trkpt lat="44.78604725190215" lon="11.493446394375173"><ele>8.0</ele><time>2026-05-03T07:39:06Z</time></trkpt><trkpt lat="44.785876008885616" lon="11.493588391314006"><ele>7.666666666666666</ele><time>2026-05-03T07:39:07Z</time></trkpt><trkpt lat="44.78571744732715" lon="11.493715561147484"><ele>7.333333333333334</ele><time>2026-05-03T07:39:08Z</time></trkpt><trkpt lat="44.78557011726894" lon="11.493833865658814"><ele>7.0</ele><time>2026-05-03T07:39:09Z</time></trkpt><trkpt lat="44.78543903100324" lon="11.49393880198693"><ele>7.0</ele><time>2026-05-03T07:39:10Z</time></trkpt><trkpt lat="44.78532077014113" lon="11.494043846846658"><ele>7.0</ele><time>2026-05-03T07:39:11Z</time></trkpt><trkpt lat="44.785213213586644" lon="11.494161490933864"><ele>7.0</ele><time>2026-05-03T07:39:12Z</time></trkpt><trkpt lat="44.785129302035834" lon="11.494270277213253"><ele>7.0</ele><time>2026-05-03T07:39:13Z</time></trkpt><trkpt lat="44.78504204555333" lon="11.494356940756584"><ele>7.0</ele><time>2026-05-03T07:39:14Z</time></trkpt><trkpt lat="44.78494264045491" lon="11.494416798848878"><ele>6.999999999999999</ele><time>2026-05-03T07:39:15Z</time></trkpt><trkpt lat="44.784842604331565" lon="11.494461002806167"><ele>6.999999999999999</ele><time>2026-05-03T07:39:16Z</time></trkpt><trkpt lat="44.784745785956396" lon="11.494486173770149"><ele>7.0</ele><time>2026-05-03T07:39:17Z</time></trkpt><trkpt lat="44.78465987520983" lon="11.494482037455194"><ele>7.0</ele><time>2026-05-03T07:39:18Z</time></trkpt><trkpt lat="44.78457682304431" lon="11.494432458212872"><ele>7.0</ele><time>2026-05-03T07:39:19Z</time></trkpt><trkpt lat="44.78448919156087" lon="11.494335279367187"><ele>7.0</ele><time>2026-05-03T07:39:20Z</time></trkpt><trkpt lat="44.78437954663881" lon="11.49419690133891"><ele>7.0</ele><time>2026-05-03T07:39:21Z</time></trkpt><trkpt lat="44.78424940065372" lon="11.494045811620072"><ele>7.0</ele><time>2026-05-03T07:39:22Z</time></trkpt><trkpt lat="44.78410270916439" lon="11.493880537794551"><ele>6.333333333333334</ele><time>2026-05-03T07:39:23Z</time></trkpt><trkpt lat="44.78395283166787" lon="11.493707836497444"><ele>5.666666666666667</ele><time>2026-05-03T07:39:24Z</time></trkpt><trkpt lat="44.783788167322164" lon="11.493521159638831"><ele>5.0</ele><time>2026-05-03T07:39:25Z</time></trkpt><trkpt lat="44.783613544277905" lon="11.493324114000632"><ele>7.0</ele><time>2026-05-03T07:39:26Z</time></trkpt><trkpt lat="44.78345151218448" lon="11.493080429264579"><ele>9.0</ele><time>2026-05-03T07:39:27Z</time></trkpt><trkpt lat="44.783270982930915" lon="11.492871926352542"><ele>9.0</ele><time>2026-05-03T07:39:28Z</time></trkpt><trkpt lat="44.78308419110221" lon="11.49265684559324"><ele>9.0</ele><time>2026-05-03T07:39:29Z</time></trkpt><trkpt lat="44.782892471016346" lon="11.492437495274988"><ele>9.0</ele><time>2026-05-03T07:39:30Z</time></trkpt><trkpt lat="44.78269617684043" lon="11.492212911599166"><ele>9.0</ele><time>2026-05-03T07:39:31Z</time></trkpt><trkpt lat="44.78249877417343" lon="11.491987059767359"><ele>9.0</ele><time>2026-05-03T07:39:32Z</time></trkpt><trkpt lat="44.78229500396496" lon="11.49175448114317"><ele>9.0</ele><time>2026-05-03T07:39:33Z</time></trkpt><trkpt lat="44.78210047584074" lon="11.491534687831441"><ele>9.0</ele><time>2026-05-03T07:39:34Z</time></trkpt><trkpt lat="44.781898208805536" lon="11.491313788953702"><ele>9.0</ele><time>2026-05-03T07:39:35Z</time></trkpt><trkpt lat="44.781695885200996" lon="11.49109505936307"><ele>9.0</ele><time>2026-05-03T07:39:36Z</time></trkpt><trkpt lat="44.78148939232963" lon="11.490872945704975"><ele>9.0</ele><time>2026-05-03T07:39:37Z</time></trkpt><trkpt lat="44.78129265822274" lon="11.490658281361148"><ele>9.0</ele><time>2026-05-03T07:39:38Z</time></trkpt><trkpt lat="44.781099826570795" lon="11.490450862062259"><ele>9.0</ele><time>2026-05-03T07:39:39Z</time></trkpt><trkpt lat="44.78090859206299" lon="11.490245160816508"><ele>10.0</ele><time>2026-05-03T07:39:40Z</time></trkpt><trkpt lat="44.78071780799432" lon="11.490039944107577"><ele>11.0</ele><time>2026-05-03T07:39:41Z</time></trkpt><trkpt lat="44.78052821241406" lon="11.48983705056354"><ele>11.0</ele><time>2026-05-03T07:39:42Z</time></trkpt><trkpt lat="44.78034233350018" lon="11.48963657853704"><ele>11.0</ele><time>2026-05-03T07:39:43Z</time></trkpt><trkpt lat="44.78015708222766" lon="11.489435256118512"><ele>10.333333333333332</ele><time>2026-05-03T07:39:44Z</time></trkpt><trkpt lat="44.77998178242588" lon="11.489244748549323"><ele>9.666666666666666</ele><time>2026-05-03T07:39:45Z</time></trkpt><trkpt lat="44.779817798651806" lon="11.48906794824271"><ele>9.0</ele><time>2026-05-03T07:39:46Z</time></trkpt><trkpt lat="44.77964969712774" lon="11.488886799386536"><ele>9.0</ele><time>2026-05-03T07:39:47Z</time></trkpt><trkpt lat="44.77950464725429" lon="11.488730491356376"><ele>9.0</ele><time>2026-05-03T07:39:48Z</time></trkpt><trkpt lat="44.7793652066305" lon="11.488580227997824"><ele>9.0</ele><time>2026-05-03T07:39:49Z</time></trkpt><trkpt lat="44.77922776002643" lon="11.488432852219887"><ele>8.666666666666666</ele><time>2026-05-03T07:39:50Z</time></trkpt><trkpt lat="44.77909006211039" lon="11.488295039583093"><ele>8.333333333333332</ele><time>2026-05-03T07:39:51Z</time></trkpt><trkpt lat="44.778941566074614" lon="11.488199720135668"><ele>8.0</ele><time>2026-05-03T07:39:52Z</time></trkpt><trkpt lat="44.778800645870945" lon="11.488111959226856"><ele>8.0</ele><time>2026-05-03T07:39:53Z</time></trkpt><trkpt lat="44.77865764634207" lon="11.488075535122551"><ele>8.0</ele><time>2026-05-03T07:39:54Z</time></trkpt><trkpt lat="44.77851085852306" lon="11.488079193515123"><ele>8.0</ele><time>2026-05-03T07:39:55Z</time></trkpt><trkpt lat="44.77835841001452" lon="11.488101116539362"><ele>8.0</ele><time>2026-05-03T07:39:56Z</time></trkpt><trkpt lat="44.77820332689756" lon="11.488115098355403"><ele>8.0</ele><time>2026-05-03T07:39:57Z</time></trkpt><trkpt lat="44.77805358146511" lon="11.488131176243098"><ele>8.0</ele><time>2026-05-03T07:39:58Z</time></trkpt><trkpt lat="44.77789955737255" lon="11.488120070404232"><ele>8.0</ele><time>2026-05-03T07:39:59Z</time></trkpt><trkpt lat="44.7777552775071" lon="11.488126602537292"><ele>8.0</ele><time>2026-05-03T07:40:00Z</time></trkpt><trkpt lat="44.77762224495325" lon="11.48813262546252"><ele>8.25</ele><time>2026-05-03T07:40:00.999Z</time></trkpt><trkpt lat="44.77749372268221" lon="11.488138444180644"><ele>8.5</ele><time>2026-05-03T07:40:01.999Z</time></trkpt><trkpt lat="44.77737067704512" lon="11.48814401499719"><ele>8.75</ele><time>2026-05-03T07:40:02.999Z</time></trkpt><trkpt lat="44.77726197417145" lon="11.488142701257948"><ele>9.0</ele><time>2026-05-03T07:40:03.999Z</time></trkpt><trkpt lat="44.777166778029176" lon="11.488134251894003"><ele>9.0</ele><time>2026-05-03T07:40:04.999Z</time></trkpt><trkpt lat="44.777081379385294" lon="11.488119359442011"><ele>9.0</ele><time>2026-05-03T07:40:05.999Z</time></trkpt><trkpt lat="44.777006338668286" lon="11.48808067665122"><ele>9.0</ele><time>2026-05-03T07:40:06.999Z</time></trkpt><trkpt lat="44.7769473141134" lon="11.488018777627623"><ele>9.0</ele><time>2026-05-03T07:40:07.999Z</time></trkpt><trkpt lat="44.776878868360285" lon="11.48798010519464"><ele>9.0</ele><time>2026-05-03T07:40:08.999Z</time></trkpt><trkpt lat="44.776862624503806" lon="11.487833639689283"><ele>9.0</ele><time>2026-05-03T07:40:09.999Z</time></trkpt><trkpt lat="44.77678907972662" lon="11.487742067470467"><ele>9.2</ele><time>2026-05-03T07:40:10.999Z</time></trkpt><trkpt lat="44.7767055154828" lon="11.487670552031163"><ele>9.4</ele><time>2026-05-03T07:40:11.999Z</time></trkpt><trkpt lat="44.77658871644787" lon="11.487666513349273"><ele>9.6</ele><time>2026-05-03T07:40:12.999Z</time></trkpt><trkpt lat="44.776498041899856" lon="11.48768912465985"><ele>9.8</ele><time>2026-05-03T07:40:13.999Z</time></trkpt><trkpt lat="44.77638591357809" lon="11.487757633456415"><ele>10.0</ele><time>2026-05-03T07:40:14.999Z</time></trkpt><trkpt lat="44.77631341722854" lon="11.487873018686864"><ele>9.8</ele><time>2026-05-03T07:40:15.999Z</time></trkpt><trkpt lat="44.77623654514591" lon="11.487979337727356"><ele>9.6</ele><time>2026-05-03T07:40:16.999Z</time></trkpt><trkpt lat="44.776165554666" lon="11.488086355362553"><ele>9.4</ele><time>2026-05-03T07:40:17.999Z</time></trkpt><trkpt lat="44.77608558627896" lon="11.488159919831089"><ele>9.2</ele><time>2026-05-03T07:40:18.999Z</time></trkpt><trkpt lat="44.7759924947366" lon="11.488175075083285"><ele>9.0</ele><time>2026-05-03T07:40:19.999Z</time></trkpt><trkpt lat="44.77589661774466" lon="11.488232920975602"><ele>8.5</ele><time>2026-05-03T07:40:20.999Z</time></trkpt><trkpt lat="44.77578242145606" lon="11.488192793170088"><ele>8.0</ele><time>2026-05-03T07:40:21.999Z</time></trkpt><trkpt lat="44.77566354887624" lon="11.48819702272057"><ele>7.5</ele><time>2026-05-03T07:40:22.999Z</time></trkpt><trkpt lat="44.775536913985036" lon="11.488201528454232"><ele>7.0</ele><time>2026-05-03T07:40:23.999Z</time></trkpt><trkpt lat="44.77539775989989" lon="11.488206479631359"><ele>7.0</ele><time>2026-05-03T07:40:24.999Z</time></trkpt><trkpt lat="44.775248148801374" lon="11.488211802873437"><ele>7.0</ele><time>2026-05-03T07:40:25.999Z</time></trkpt><trkpt lat="44.775086174039856" lon="11.488217702479053"><ele>7.0</ele><time>2026-05-03T07:40:26.999Z</time></trkpt><trkpt lat="44.77492648984273" lon="11.488223544584898"><ele>7.0</ele><time>2026-05-03T07:40:27.999Z</time></trkpt><trkpt lat="44.774766925258874" lon="11.488229382313415"><ele>7.0</ele><time>2026-05-03T07:40:28.999Z</time></trkpt><trkpt lat="44.774602550899125" lon="11.488235396009479"><ele>7.0</ele><time>2026-05-03T07:40:29.999Z</time></trkpt><trkpt lat="44.77443426091769" lon="11.48824155489751"><ele>7.0</ele><time>2026-05-03T07:40:30.999Z</time></trkpt><trkpt lat="44.77426529371095" lon="11.48824772414288"><ele>7.0</ele><time>2026-05-03T07:40:31.999Z</time></trkpt><trkpt lat="44.7740959327761" lon="11.48825353497086"><ele>7.0</ele><time>2026-05-03T07:40:32.999Z</time></trkpt><trkpt lat="44.77392448083671" lon="11.488259417537778"><ele>7.0</ele><time>2026-05-03T07:40:33.999Z</time></trkpt><trkpt lat="44.77375549525067" lon="11.488265215486843"><ele>7.0</ele><time>2026-05-03T07:40:34.999Z</time></trkpt><trkpt lat="44.77358733493981" lon="11.488270985119197"><ele>7.0</ele><time>2026-05-03T07:40:35.999Z</time></trkpt><trkpt lat="44.77341947884327" lon="11.488276744313024"><ele>7.0</ele><time>2026-05-03T07:40:36.999Z</time></trkpt><trkpt lat="44.7732521068831" lon="11.488282070247479"><ele>7.0</ele><time>2026-05-03T07:40:37.999Z</time></trkpt><trkpt lat="44.77308944962659" lon="11.488287224575167"><ele>7.0</ele><time>2026-05-03T07:40:38.999Z</time></trkpt><trkpt lat="44.77293974272841" lon="11.488291968518798"><ele>7.0</ele><time>2026-05-03T07:40:39.999Z</time></trkpt><trkpt lat="44.772804233149195" lon="11.488296262586028"><ele>7.0</ele><time>2026-05-03T07:40:40.999Z</time></trkpt><trkpt lat="44.77267260064175" lon="11.48830043378931"><ele>7.0</ele><time>2026-05-03T07:40:41.999Z</time></trkpt><trkpt lat="44.77255030680657" lon="11.488304309070319"><ele>7.0</ele><time>2026-05-03T07:40:42.999Z</time></trkpt><trkpt lat="44.77243998775735" lon="11.488307804910207"><ele>7.000000000000001</ele><time>2026-05-03T07:40:43.999Z</time></trkpt><trkpt lat="44.77235138879029" lon="11.488315400575402"><ele>7.0</ele><time>2026-05-03T07:40:44.999Z</time></trkpt><trkpt lat="44.77227611392803" lon="11.488292746201045"><ele>7.0</ele><time>2026-05-03T07:40:45.999Z</time></trkpt><trkpt lat="44.77221550951724" lon="11.488267213115966"><ele>7.0</ele><time>2026-05-03T07:40:46.999Z</time></trkpt><trkpt lat="44.77209928236098" lon="11.488254485760626"><ele>7.000000000000001</ele><time>2026-05-03T07:40:48.999Z</time></trkpt><trkpt lat="44.77202885956102" lon="11.488339322050598"><ele>7.0</ele><time>2026-05-03T07:40:50.999Z</time></trkpt><trkpt lat="44.771957181851285" lon="11.488382111141501"><ele>7.0</ele><time>2026-05-03T07:40:52.999Z</time></trkpt><trkpt lat="44.771961717509306" lon="11.488504921896691"><ele>6.999999999999999</ele><time>2026-05-03T07:40:53.999Z</time></trkpt><trkpt lat="44.77194911612663" lon="11.488605334510599"><ele>6.999999999999999</ele><time>2026-05-03T07:40:54.999Z</time></trkpt><trkpt lat="44.771937406724604" lon="11.488727908550189"><ele>7.0</ele><time>2026-05-03T07:40:55.999Z</time></trkpt><trkpt lat="44.771923071336914" lon="11.488860538963612"><ele>7.0</ele><time>2026-05-03T07:40:56.999Z</time></trkpt><trkpt lat="44.771903195840515" lon="11.489013288693146"><ele>7.0</ele><time>2026-05-03T07:40:57.999Z</time></trkpt><trkpt lat="44.77187804076171" lon="11.48915885424274"><ele>7.0</ele><time>2026-05-03T07:40:58.999Z</time></trkpt><trkpt lat="44.771836739546444" lon="11.489328365903269"><ele>7.0</ele><time>2026-05-03T07:41:00Z</time></trkpt><trkpt lat="44.7717780989997" lon="11.48951958226033"><ele>7.0</ele><time>2026-05-03T07:41:01Z</time></trkpt><trkpt lat="44.771711284135705" lon="11.489703415743623"><ele>7.5</ele><time>2026-05-03T07:41:02Z</time></trkpt><trkpt lat="44.77163461805442" lon="11.48987066717493"><ele>8.0</ele><time>2026-05-03T07:41:03Z</time></trkpt><trkpt lat="44.77154838148455" lon="11.490048057411569"><ele>8.5</ele><time>2026-05-03T07:41:04Z</time></trkpt><trkpt lat="44.77146015409345" lon="11.49022018514371"><ele>9.0</ele><time>2026-05-03T07:41:05Z</time></trkpt><trkpt lat="44.77137384965576" lon="11.490393349508192"><ele>8.666666666666666</ele><time>2026-05-03T07:41:06Z</time></trkpt><trkpt lat="44.771283697414844" lon="11.49057590600159"><ele>8.333333333333332</ele><time>2026-05-03T07:41:07Z</time></trkpt><trkpt lat="44.771186591023294" lon="11.490761773852528"><ele>8.0</ele><time>2026-05-03T07:41:08Z</time></trkpt><trkpt lat="44.77108928330468" lon="11.490953927785604"><ele>8.333333333333332</ele><time>2026-05-03T07:41:09Z</time></trkpt><trkpt lat="44.77100016354803" lon="11.491133759440196"><ele>8.666666666666666</ele><time>2026-05-03T07:41:10Z</time></trkpt><trkpt lat="44.770904430784846" lon="11.491320216957432"><ele>9.0</ele><time>2026-05-03T07:41:11Z</time></trkpt><trkpt lat="44.77080606099897" lon="11.491512745669644"><ele>9.0</ele><time>2026-05-03T07:41:12Z</time></trkpt><trkpt lat="44.7707073348373" lon="11.491705373178632"><ele>9.0</ele><time>2026-05-03T07:41:13Z</time></trkpt><trkpt lat="44.77060984003445" lon="11.491904365043336"><ele>9.0</ele><time>2026-05-03T07:41:14Z</time></trkpt><trkpt lat="44.7705084247163" lon="11.492109833785202"><ele>8.666666666666666</ele><time>2026-05-03T07:41:15Z</time></trkpt><trkpt lat="44.77041228806419" lon="11.492297180055711"><ele>8.333333333333332</ele><time>2026-05-03T07:41:16Z</time></trkpt><trkpt lat="44.77031807174555" lon="11.492482731190815"><ele>8.0</ele><time>2026-05-03T07:41:17Z</time></trkpt><trkpt lat="44.7702276943838" lon="11.492665695391194"><ele>8.0</ele><time>2026-05-03T07:41:18Z</time></trkpt><trkpt lat="44.77013791648012" lon="11.492832269561186"><ele>8.0</ele><time>2026-05-03T07:41:19Z</time></trkpt><trkpt lat="44.77004543407649" lon="11.492988674830386"><ele>8.0</ele><time>2026-05-03T07:41:20Z</time></trkpt><trkpt lat="44.769944635246596" lon="11.493137516214338"><ele>8.0</ele><time>2026-05-03T07:41:21Z</time></trkpt><trkpt lat="44.76984049390618" lon="11.49326979737258"><ele>8.0</ele><time>2026-05-03T07:41:22Z</time></trkpt><trkpt lat="44.76972757982953" lon="11.493387339783393"><ele>8.0</ele><time>2026-05-03T07:41:23Z</time></trkpt><trkpt lat="44.76960105276119" lon="11.493494488259207"><ele>8.0</ele><time>2026-05-03T07:41:24Z</time></trkpt><trkpt lat="44.769466343182295" lon="11.493592695873586"><ele>8.0</ele><time>2026-05-03T07:41:25Z</time></trkpt><trkpt lat="44.769319938368525" lon="11.493680259676921"><ele>8.0</ele><time>2026-05-03T07:41:26Z</time></trkpt><trkpt lat="44.76916725032764" lon="11.4937506354407"><ele>8.0</ele><time>2026-05-03T07:41:27Z</time></trkpt><trkpt lat="44.769005736730655" lon="11.493796575326556"><ele>8.0</ele><time>2026-05-03T07:41:28Z</time></trkpt><trkpt lat="44.768838885548476" lon="11.493826964999222"><ele>8.0</ele><time>2026-05-03T07:41:29Z</time></trkpt><trkpt lat="44.76867808915586" lon="11.493857302197705"><ele>8.0</ele><time>2026-05-03T07:41:30Z</time></trkpt><trkpt lat="44.76852480069436" lon="11.49387972161233"><ele>8.0</ele><time>2026-05-03T07:41:31Z</time></trkpt><trkpt lat="44.76837984159599" lon="11.493901255814587"><ele>8.25</ele><time>2026-05-03T07:41:32Z</time></trkpt><trkpt lat="44.76824285820783" lon="11.493929719273716"><ele>8.5</ele><time>2026-05-03T07:41:33Z</time></trkpt><trkpt lat="44.768116531915275" lon="11.493974778316117"><ele>8.75</ele><time>2026-05-03T07:41:34Z</time></trkpt><trkpt lat="44.76801060640671" lon="11.494041932483944"><ele>9.0</ele><time>2026-05-03T07:41:35Z</time></trkpt><trkpt lat="44.767914842768" lon="11.494133111487296"><ele>9.0</ele><time>2026-05-03T07:41:36Z</time></trkpt><trkpt lat="44.767823877715" lon="11.49423940067891"><ele>9.0</ele><time>2026-05-03T07:41:37Z</time></trkpt><trkpt lat="44.76774796492726" lon="11.494398393831885"><ele>9.0</ele><time>2026-05-03T07:41:38Z</time></trkpt><trkpt lat="44.767684145096815" lon="11.494568828706123"><ele>9.0</ele><time>2026-05-03T07:41:39Z</time></trkpt><trkpt lat="44.767616043510344" lon="11.49474493538817"><ele>9.0</ele><time>2026-05-03T07:41:40Z</time></trkpt><trkpt lat="44.767547864554835" lon="11.494910309756841"><ele>9.0</ele><time>2026-05-03T07:41:41Z</time></trkpt><trkpt lat="44.76748265075226" lon="11.4950559309696"><ele>9.0</ele><time>2026-05-03T07:41:42Z</time></trkpt><trkpt lat="44.76742590320715" lon="11.495195464636783"><ele>9.0</ele><time>2026-05-03T07:41:43Z</time></trkpt><trkpt lat="44.767375192142666" lon="11.49532449045199"><ele>8.833333333333334</ele><time>2026-05-03T07:41:44Z</time></trkpt><trkpt lat="44.76732875447732" lon="11.495439616522452"><ele>8.666666666666666</ele><time>2026-05-03T07:41:45Z</time></trkpt><trkpt lat="44.767283382554936" lon="11.495546245826018"><ele>8.5</ele><time>2026-05-03T07:41:46Z</time></trkpt><trkpt lat="44.76723906190957" lon="11.495636169909151"><ele>8.333333333333332</ele><time>2026-05-03T07:41:47Z</time></trkpt><trkpt lat="44.767196484094804" lon="11.495711739597493"><ele>8.166666666666666</ele><time>2026-05-03T07:41:48Z</time></trkpt><trkpt lat="44.76714642273588" lon="11.495805891864887"><ele>8.0</ele><time>2026-05-03T07:41:50Z</time></trkpt><trkpt lat="44.76708317372298" lon="11.495948662519544"><ele>8.0</ele><time>2026-05-03T07:41:53Z</time></trkpt><trkpt lat="44.767040917884536" lon="11.496052425607555"><ele>8.0</ele><time>2026-05-03T07:41:54Z</time></trkpt><trkpt lat="44.766997794173086" lon="11.496175200310203"><ele>8.0</ele><time>2026-05-03T07:41:55Z</time></trkpt><trkpt lat="44.76694410551721" lon="11.496336843485336"><ele>8.0</ele><time>2026-05-03T07:41:56Z</time></trkpt><trkpt lat="44.766877639510085" lon="11.496523790636239"><ele>8.0</ele><time>2026-05-03T07:41:57Z</time></trkpt><trkpt lat="44.76679823663027" lon="11.496712743167887"><ele>8.0</ele><time>2026-05-03T07:41:58Z</time></trkpt><trkpt lat="44.76671504332633" lon="11.496925233569334"><ele>8.0</ele><time>2026-05-03T07:41:59Z</time></trkpt><trkpt lat="44.7666285019557" lon="11.49715214940873"><ele>8.0</ele><time>2026-05-03T07:42:00Z</time></trkpt><trkpt lat="44.76654420848658" lon="11.497379825488093"><ele>8.0</ele><time>2026-05-03T07:42:01Z</time></trkpt><trkpt lat="44.76644903750569" lon="11.497627177025823"><ele>8.0</ele><time>2026-05-03T07:42:02Z</time></trkpt><trkpt lat="44.76634874657207" lon="11.497885996849524"><ele>7.666666666666666</ele><time>2026-05-03T07:42:03Z</time></trkpt><trkpt lat="44.76624679592249" lon="11.498159359507993"><ele>7.333333333333334</ele><time>2026-05-03T07:42:04Z</time></trkpt><trkpt lat="44.76614786756259" lon="11.498421865576006"><ele>7.0</ele><time>2026-05-03T07:42:05Z</time></trkpt><trkpt lat="44.76605000197545" lon="11.498684487000721"><ele>7.0</ele><time>2026-05-03T07:42:06Z</time></trkpt><trkpt lat="44.76595519371419" lon="11.498942855104309"><ele>7.0</ele><time>2026-05-03T07:42:07Z</time></trkpt><trkpt lat="44.76586122146993" lon="11.499199356920085"><ele>7.0</ele><time>2026-05-03T07:42:07.999Z</time></trkpt><trkpt lat="44.765768667009944" lon="11.499448271388673"><ele>7.0</ele><time>2026-05-03T07:42:08.999Z</time></trkpt><trkpt lat="44.765677620127256" lon="11.499696515546644"><ele>7.0</ele><time>2026-05-03T07:42:09.999Z</time></trkpt><trkpt lat="44.76558585264024" lon="11.49995142301981"><ele>7.0</ele><time>2026-05-03T07:42:10.999Z</time></trkpt><trkpt lat="44.76548819657971" lon="11.500215454678887"><ele>7.0</ele><time>2026-05-03T07:42:11.999Z</time></trkpt><trkpt lat="44.765388042118005" lon="11.500485082245332"><ele>7.0</ele><time>2026-05-03T07:42:12.999Z</time></trkpt><trkpt lat="44.76528304046005" lon="11.500762498088859"><ele>7.0</ele><time>2026-05-03T07:42:13.999Z</time></trkpt><trkpt lat="44.76517641411103" lon="11.501051105027443"><ele>7.0</ele><time>2026-05-03T07:42:14.999Z</time></trkpt><trkpt lat="44.76506620579486" lon="11.501349010428399"><ele>7.0</ele><time>2026-05-03T07:42:15.999Z</time></trkpt><trkpt lat="44.7649581663779" lon="11.501651519812006"><ele>7.0</ele><time>2026-05-03T07:42:16.999Z</time></trkpt><trkpt lat="44.76484434475598" lon="11.501961507996073"><ele>7.0</ele><time>2026-05-03T07:42:17.999Z</time></trkpt><trkpt lat="44.76473062875533" lon="11.50227406537226"><ele>7.0</ele><time>2026-05-03T07:42:18.999Z</time></trkpt><trkpt lat="44.76461398151776" lon="11.502598557969511"><ele>7.0</ele><time>2026-05-03T07:42:19.999Z</time></trkpt><trkpt lat="44.76448996038434" lon="11.502933297258496"><ele>7.0</ele><time>2026-05-03T07:42:20.999Z</time></trkpt><trkpt lat="44.764365591543715" lon="11.503273225968863"><ele>7.0</ele><time>2026-05-03T07:42:21.999Z</time></trkpt><trkpt lat="44.764234864659244" lon="11.503631363088907"><ele>7.0</ele><time>2026-05-03T07:42:22.999Z</time></trkpt><trkpt lat="44.764086160371434" lon="11.504035570494272"><ele>7.0</ele><time>2026-05-03T07:42:23.999Z</time></trkpt><trkpt lat="44.76392259443171" lon="11.504476185535664"><ele>6.5</ele><time>2026-05-03T07:42:24.999Z</time></trkpt><trkpt lat="44.763749641435005" lon="11.50494104026367"><ele>6.0</ele><time>2026-05-03T07:42:25.999Z</time></trkpt><trkpt lat="44.76358866914036" lon="11.505382619400546"><ele>6.5</ele><time>2026-05-03T07:42:26.999Z</time></trkpt><trkpt lat="44.76344045252567" lon="11.50578160082087"><ele>7.0</ele><time>2026-05-03T07:42:27.999Z</time></trkpt><trkpt lat="44.763301056031395" lon="11.506162751599355"><ele>6.5</ele><time>2026-05-03T07:42:28.999Z</time></trkpt><trkpt lat="44.76316001542625" lon="11.50655073819483"><ele>6.0</ele><time>2026-05-03T07:42:29.999Z</time></trkpt><trkpt lat="44.76301311050244" lon="11.50695013369808"><ele>6.5</ele><time>2026-05-03T07:42:30.999Z</time></trkpt><trkpt lat="44.76286937144203" lon="11.507338642439727"><ele>7.0</ele><time>2026-05-03T07:42:31.999Z</time></trkpt><trkpt lat="44.76272994084265" lon="11.50771811465978"><ele>7.0</ele><time>2026-05-03T07:42:32.999Z</time></trkpt><trkpt lat="44.76259345321335" lon="11.508093649188044"><ele>7.0</ele><time>2026-05-03T07:42:33.999Z</time></trkpt><trkpt lat="44.762457358817855" lon="11.50846342006291"><ele>7.0</ele><time>2026-05-03T07:42:34.999Z</time></trkpt><trkpt lat="44.76232451444599" lon="11.5088316521168"><ele>7.0</ele><time>2026-05-03T07:42:35.999Z</time></trkpt><trkpt lat="44.762186568600384" lon="11.50920610063976"><ele>6.0</ele><time>2026-05-03T07:42:36.999Z</time></trkpt><trkpt lat="44.76204724734968" lon="11.509578290434973"><ele>5.0</ele><time>2026-05-03T07:42:37.999Z</time></trkpt><trkpt lat="44.76191192687656" lon="11.509947160482959"><ele>5.0</ele><time>2026-05-03T07:42:38.999Z</time></trkpt><trkpt lat="44.76177166920237" lon="11.510329821907526"><ele>5.0</ele><time>2026-05-03T07:42:39.999Z</time></trkpt><trkpt lat="44.7616358601564" lon="11.510699019102859"><ele>4.5</ele><time>2026-05-03T07:42:40.999Z</time></trkpt><trkpt lat="44.76150341123264" lon="11.511062220887151"><ele>4.0</ele><time>2026-05-03T07:42:41.999Z</time></trkpt><trkpt lat="44.76137466300826" lon="11.511411975122838"><ele>4.0</ele><time>2026-05-03T07:42:42.999Z</time></trkpt><trkpt lat="44.76124814655781" lon="11.511758642796433"><ele>4.0</ele><time>2026-05-03T07:42:43.999Z</time></trkpt><trkpt lat="44.76112312780913" lon="11.512102408945118"><ele>6.5</ele><time>2026-05-03T07:42:44.999Z</time></trkpt><trkpt lat="44.76099622918746" lon="11.512442759136945"><ele>9.0</ele><time>2026-05-03T07:42:45.999Z</time></trkpt><trkpt lat="44.76086721553894" lon="11.512781070405671"><ele>7.5</ele><time>2026-05-03T07:42:46.999Z</time></trkpt><trkpt lat="44.76073983899162" lon="11.513120778304375"><ele>6.0</ele><time>2026-05-03T07:42:47.999Z</time></trkpt><trkpt lat="44.76061317304217" lon="11.513468385603044"><ele>6.5</ele><time>2026-05-03T07:42:48.999Z</time></trkpt><trkpt lat="44.76048927987471" lon="11.513811880603521"><ele>7.0</ele><time>2026-05-03T07:42:49.999Z</time></trkpt><trkpt lat="44.7603659962066" lon="11.514151690044383"><ele>7.0</ele><time>2026-05-03T07:42:50.999Z</time></trkpt><trkpt lat="44.760239026747236" lon="11.514491733823366"><ele>7.0</ele><time>2026-05-03T07:42:51.999Z</time></trkpt><trkpt lat="44.760113172732446" lon="11.514828120775055"><ele>7.0</ele><time>2026-05-03T07:42:52.999Z</time></trkpt><trkpt lat="44.759989304299225" lon="11.5151667380764"><ele>7.0</ele><time>2026-05-03T07:42:53.999Z</time></trkpt><trkpt lat="44.75986174421225" lon="11.515509745361207"><ele>7.0</ele><time>2026-05-03T07:42:54.999Z</time></trkpt><trkpt lat="44.75973638233417" lon="11.515846749550496"><ele>7.0</ele><time>2026-05-03T07:42:55.999Z</time></trkpt><trkpt lat="44.75960953493527" lon="11.516185220980562"><ele>7.0</ele><time>2026-05-03T07:42:56.999Z</time></trkpt><trkpt lat="44.75948239741188" lon="11.516528202198858"><ele>7.0</ele><time>2026-05-03T07:42:57.999Z</time></trkpt><trkpt lat="44.759357168271265" lon="11.516867947391836"><ele>6.5</ele><time>2026-05-03T07:42:58.999Z</time></trkpt><trkpt lat="44.75923134554088" lon="11.517206900486624"><ele>6.0</ele><time>2026-05-03T07:42:59.999Z</time></trkpt><trkpt lat="44.759104854964555" lon="11.517548520769186"><ele>6.0</ele><time>2026-05-03T07:43:00.999Z</time></trkpt><trkpt lat="44.75897962449473" lon="11.517887864719471"><ele>6.0</ele><time>2026-05-03T07:43:01.999Z</time></trkpt><trkpt lat="44.75885631053933" lon="11.518228094115221"><ele>6.0</ele><time>2026-05-03T07:43:02.999Z</time></trkpt><trkpt lat="44.758731968898815" lon="11.518570078047382"><ele>6.0</ele><time>2026-05-03T07:43:03.999Z</time></trkpt><trkpt lat="44.75860625322869" lon="11.51891501251286"><ele>5.5</ele><time>2026-05-03T07:43:04.999Z</time></trkpt><trkpt lat="44.75848176868582" lon="11.519249453164903"><ele>5.0</ele><time>2026-05-03T07:43:06Z</time></trkpt><trkpt lat="44.75835670452151" lon="11.519591377972553"><ele>6.5</ele><time>2026-05-03T07:43:07Z</time></trkpt><trkpt lat="44.7582286294926" lon="11.519931063271214"><ele>8.0</ele><time>2026-05-03T07:43:08Z</time></trkpt><trkpt lat="44.75810324758197" lon="11.520263467897694"><ele>8.0</ele><time>2026-05-03T07:43:09Z</time></trkpt><trkpt lat="44.75797993604383" lon="11.520596996729694"><ele>8.0</ele><time>2026-05-03T07:43:10Z</time></trkpt><trkpt lat="44.75785753799706" lon="11.520929831433127"><ele>7.0</ele><time>2026-05-03T07:43:11Z</time></trkpt><trkpt lat="44.75773414480168" lon="11.52126090977659"><ele>6.0</ele><time>2026-05-03T07:43:12Z</time></trkpt><trkpt lat="44.75761238492846" lon="11.521589758978465"><ele>6.0</ele><time>2026-05-03T07:43:13Z</time></trkpt><trkpt lat="44.75749082545855" lon="11.52191966436353"><ele>6.0</ele><time>2026-05-03T07:43:14Z</time></trkpt><trkpt lat="44.757371836346316" lon="11.522244287498738"><ele>6.5</ele><time>2026-05-03T07:43:15Z</time></trkpt><trkpt lat="44.75725298010853" lon="11.522567195076876"><ele>7.0</ele><time>2026-05-03T07:43:16Z</time></trkpt><trkpt lat="44.757132898767416" lon="11.522889972451152"><ele>6.5</ele><time>2026-05-03T07:43:17Z</time></trkpt><trkpt lat="44.75701436966311" lon="11.523209721328456"><ele>6.0</ele><time>2026-05-03T07:43:18Z</time></trkpt><trkpt lat="44.756898827610556" lon="11.523530410846066"><ele>5.0</ele><time>2026-05-03T07:43:19Z</time></trkpt><trkpt lat="44.75678168388605" lon="11.523853740901242"><ele>4.0</ele><time>2026-05-03T07:43:20Z</time></trkpt><trkpt lat="44.756662750454396" lon="11.524173783378268"><ele>4.0</ele><time>2026-05-03T07:43:21Z</time></trkpt><trkpt lat="44.75654451716533" lon="11.524492275985498"><ele>4.0</ele><time>2026-05-03T07:43:22Z</time></trkpt><trkpt lat="44.75642744056068" lon="11.524811800092829"><ele>3.5</ele><time>2026-05-03T07:43:23Z</time></trkpt><trkpt lat="44.75630752723434" lon="11.52512839145348"><ele>3.0</ele><time>2026-05-03T07:43:24Z</time></trkpt><trkpt lat="44.75619426381235" lon="11.525428797943967"><ele>3.0</ele><time>2026-05-03T07:43:25Z</time></trkpt><trkpt lat="44.75608931172732" lon="11.525713212382458"><ele>3.0</ele><time>2026-05-03T07:43:26Z</time></trkpt><trkpt lat="44.75599489502909" lon="11.525971772678883"><ele>3.0</ele><time>2026-05-03T07:43:27Z</time></trkpt><trkpt lat="44.75590874099299" lon="11.526217948831281"><ele>3.666666666666667</ele><time>2026-05-03T07:43:28Z</time></trkpt><trkpt lat="44.75584013725305" lon="11.52645201824144"><ele>4.333333333333334</ele><time>2026-05-03T07:43:29Z</time></trkpt><trkpt lat="44.75579014401094" lon="11.526694722362329"><ele>5.0</ele><time>2026-05-03T07:43:30Z</time></trkpt><trkpt lat="44.75576531112693" lon="11.526942433600988"><ele>5.333333333333334</ele><time>2026-05-03T07:43:31Z</time></trkpt><trkpt lat="44.75576134588638" lon="11.52719294752906"><ele>5.666666666666667</ele><time>2026-05-03T07:43:32Z</time></trkpt><trkpt lat="44.75577381337297" lon="11.527446447686744"><ele>6.0</ele><time>2026-05-03T07:43:33Z</time></trkpt><trkpt lat="44.755798548532844" lon="11.527714613157903"><ele>5.666666666666667</ele><time>2026-05-03T07:43:34Z</time></trkpt><trkpt lat="44.75582769581075" lon="11.527986752078416"><ele>5.333333333333334</ele><time>2026-05-03T07:43:35Z</time></trkpt><trkpt lat="44.75585282062281" lon="11.528269065112982"><ele>5.0</ele><time>2026-05-03T07:43:36Z</time></trkpt><trkpt lat="44.755880304886404" lon="11.52855260430297"><ele>5.0</ele><time>2026-05-03T07:43:37Z</time></trkpt><trkpt lat="44.755907109322315" lon="11.528833487452118"><ele>5.0</ele><time>2026-05-03T07:43:38Z</time></trkpt><trkpt lat="44.75593449526503" lon="11.529109527879436"><ele>5.0</ele><time>2026-05-03T07:43:39Z</time></trkpt><trkpt lat="44.755962597160924" lon="11.529387189780323"><ele>5.333333333333334</ele><time>2026-05-03T07:43:40Z</time></trkpt><trkpt lat="44.755987978187406" lon="11.529654662351417"><ele>5.666666666666667</ele><time>2026-05-03T07:43:41Z</time></trkpt><trkpt lat="44.75600845529468" lon="11.529943962875377"><ele>6.0</ele><time>2026-05-03T07:43:42Z</time></trkpt><trkpt lat="44.756010695787396" lon="11.530228210988954"><ele>6.333333333333334</ele><time>2026-05-03T07:43:43Z</time></trkpt><trkpt lat="44.75598405317431" lon="11.530524130690662"><ele>6.666666666666667</ele><time>2026-05-03T07:43:44Z</time></trkpt><trkpt lat="44.755938171447724" lon="11.53083318584818"><ele>7.0</ele><time>2026-05-03T07:43:45Z</time></trkpt><trkpt lat="44.755892365225" lon="11.53115811611301"><ele>7.0</ele><time>2026-05-03T07:43:46Z</time></trkpt><trkpt lat="44.755854293927904" lon="11.531480904885349"><ele>7.0</ele><time>2026-05-03T07:43:47Z</time></trkpt><trkpt lat="44.755821517321415" lon="11.531795534574396"><ele>7.666666666666667</ele><time>2026-05-03T07:43:48Z</time></trkpt><trkpt lat="44.7557909186398" lon="11.532081810817738"><ele>8.333333333333334</ele><time>2026-05-03T07:43:49Z</time></trkpt><trkpt lat="44.755748066731265" lon="11.532318226932658"><ele>9.0</ele><time>2026-05-03T07:43:50Z</time></trkpt><trkpt lat="44.75569096043911" lon="11.532539604191275"><ele>9.0</ele><time>2026-05-03T07:43:51Z</time></trkpt><trkpt lat="44.75563054754606" lon="11.532741227458883"><ele>9.0</ele><time>2026-05-03T07:43:52Z</time></trkpt><trkpt lat="44.75556620258491" lon="11.53292312890557"><ele>9.0</ele><time>2026-05-03T07:43:53Z</time></trkpt><trkpt lat="44.755504905836865" lon="11.533105941088758"><ele>9.0</ele><time>2026-05-03T07:43:54Z</time></trkpt><trkpt lat="44.75545762704265" lon="11.533287073458462"><ele>8.5</ele><time>2026-05-03T07:43:55Z</time></trkpt><trkpt lat="44.75543058463499" lon="11.533461651802892"><ele>8.0</ele><time>2026-05-03T07:43:56Z</time></trkpt><trkpt lat="44.75541857928458" lon="11.533645080117694"><ele>7.5</ele><time>2026-05-03T07:43:57Z</time></trkpt><trkpt lat="44.7554310648477" lon="11.533862382506092"><ele>7.0</ele><time>2026-05-03T07:43:58Z</time></trkpt><trkpt lat="44.75547663424924" lon="11.534117769209224"><ele>6.5</ele><time>2026-05-03T07:43:59Z</time></trkpt><trkpt lat="44.75553834842488" lon="11.534413774595748"><ele>6.0</ele><time>2026-05-03T07:44:00Z</time></trkpt><trkpt lat="44.75559843178031" lon="11.53474416884118"><ele>6.0</ele><time>2026-05-03T07:44:01Z</time></trkpt><trkpt lat="44.75565648639825" lon="11.535094390767735"><ele>6.0</ele><time>2026-05-03T07:44:02Z</time></trkpt><trkpt lat="44.7557198864328" lon="11.535457550432099"><ele>6.0</ele><time>2026-05-03T07:44:03Z</time></trkpt><trkpt lat="44.75578856814888" lon="11.535840364692534"><ele>6.0</ele><time>2026-05-03T07:44:04Z</time></trkpt><trkpt lat="44.75585798736568" lon="11.536239964647448"><ele>5.5</ele><time>2026-05-03T07:44:05Z</time></trkpt><trkpt lat="44.755925674643144" lon="11.536623274107091"><ele>5.0</ele><time>2026-05-03T07:44:06Z</time></trkpt><trkpt lat="44.75599219385307" lon="11.536998218316013"><ele>5.5</ele><time>2026-05-03T07:44:07Z</time></trkpt><trkpt lat="44.75605809252201" lon="11.537360690728333"><ele>6.0</ele><time>2026-05-03T07:44:07.999Z</time></trkpt><trkpt lat="44.756121175532584" lon="11.537698713014947"><ele>5.5</ele><time>2026-05-03T07:44:08.999Z</time></trkpt><trkpt lat="44.75619203374985" lon="11.538025949186554"><ele>5.0</ele><time>2026-05-03T07:44:09.999Z</time></trkpt><trkpt lat="44.756274077828564" lon="11.53833900855013"><ele>5.0</ele><time>2026-05-03T07:44:10.999Z</time></trkpt><trkpt lat="44.75637054808642" lon="11.538623835702165"><ele>5.0</ele><time>2026-05-03T07:44:11.999Z</time></trkpt><trkpt lat="44.75648010575212" lon="11.53890827012981"><ele>5.0</ele><time>2026-05-03T07:44:12.999Z</time></trkpt><trkpt lat="44.75660009961269" lon="11.53920304863613"><ele>5.0</ele><time>2026-05-03T07:44:13.999Z</time></trkpt><trkpt lat="44.756730528076524" lon="11.539500368323939"><ele>4.5</ele><time>2026-05-03T07:44:14.999Z</time></trkpt><trkpt lat="44.75685646225688" lon="11.53980759583843"><ele>4.0</ele><time>2026-05-03T07:44:15.999Z</time></trkpt><trkpt lat="44.75697286517901" lon="11.540130816303785"><ele>4.0</ele><time>2026-05-03T07:44:16.999Z</time></trkpt><trkpt lat="44.757099553316635" lon="11.54045707392218"><ele>4.0</ele><time>2026-05-03T07:44:17.999Z</time></trkpt><trkpt lat="44.75723309212358" lon="11.540778574437237"><ele>4.0</ele><time>2026-05-03T07:44:18.999Z</time></trkpt><trkpt lat="44.75736602089684" lon="11.541105526186302"><ele>4.0</ele><time>2026-05-03T07:44:19.999Z</time></trkpt><trkpt lat="44.75749378040697" lon="11.541434692216036"><ele>3.5</ele><time>2026-05-03T07:44:20.999Z</time></trkpt><trkpt lat="44.75761735201776" lon="11.541761820849821"><ele>3.0</ele><time>2026-05-03T07:44:21.999Z</time></trkpt><trkpt lat="44.75773138428253" lon="11.54205939436833"><ele>3.666666666666667</ele><time>2026-05-03T07:44:22.999Z</time></trkpt><trkpt lat="44.757833781970035" lon="11.542336536537984"><ele>4.333333333333334</ele><time>2026-05-03T07:44:23.999Z</time></trkpt><trkpt lat="44.75791600520178" lon="11.542602831848221"><ele>5.0</ele><time>2026-05-03T07:44:24.999Z</time></trkpt><trkpt lat="44.757980483921905" lon="11.542880888920536"><ele>5.0</ele><time>2026-05-03T07:44:25.999Z</time></trkpt><trkpt lat="44.75802223639932" lon="11.543180303908342"><ele>5.0</ele><time>2026-05-03T07:44:26.999Z</time></trkpt><trkpt lat="44.758047008065766" lon="11.543484054880514"><ele>5.0</ele><time>2026-05-03T07:44:27.999Z</time></trkpt><trkpt lat="44.758057254589644" lon="11.543794881344795"><ele>5.0</ele><time>2026-05-03T07:44:28.999Z</time></trkpt><trkpt lat="44.75804715803173" lon="11.5441014551975"><ele>5.0</ele><time>2026-05-03T07:44:29.999Z</time></trkpt><trkpt lat="44.75801669272637" lon="11.544405237654095"><ele>5.0</ele><time>2026-05-03T07:44:30.999Z</time></trkpt><trkpt lat="44.75797137170953" lon="11.544698313611745"><ele>5.0</ele><time>2026-05-03T07:44:31.999Z</time></trkpt><trkpt lat="44.757910653240806" lon="11.544974937545074"><ele>5.0</ele><time>2026-05-03T07:44:32.999Z</time></trkpt><trkpt lat="44.75783336572652" lon="11.545243200046912"><ele>5.0</ele><time>2026-05-03T07:44:33.999Z</time></trkpt><trkpt lat="44.75773540454342" lon="11.545503754395334"><ele>5.0</ele><time>2026-05-03T07:44:34.999Z</time></trkpt><trkpt lat="44.75762280371112" lon="11.545764458422251"><ele>5.0</ele><time>2026-05-03T07:44:35.999Z</time></trkpt><trkpt lat="44.757493944145736" lon="11.546015325808497"><ele>5.0</ele><time>2026-05-03T07:44:36.999Z</time></trkpt><trkpt lat="44.75734895303884" lon="11.546255862846817"><ele>5.0</ele><time>2026-05-03T07:44:37.999Z</time></trkpt><trkpt lat="44.75718737709172" lon="11.54648020936881"><ele>5.0</ele><time>2026-05-03T07:44:38.999Z</time></trkpt><trkpt lat="44.757018418312285" lon="11.546685205718315"><ele>5.0</ele><time>2026-05-03T07:44:39.999Z</time></trkpt><trkpt lat="44.756839864213255" lon="11.546867191789707"><ele>5.0</ele><time>2026-05-03T07:44:40.999Z</time></trkpt><trkpt lat="44.75664894332426" lon="11.54703975800833"><ele>5.0</ele><time>2026-05-03T07:44:41.999Z</time></trkpt><trkpt lat="44.756456368645274" lon="11.547231381194822"><ele>5.0</ele><time>2026-05-03T07:44:42.999Z</time></trkpt><trkpt lat="44.75626571457202" lon="11.547428663144654"><ele>5.0</ele><time>2026-05-03T07:44:43.999Z</time></trkpt><trkpt lat="44.7560695956795" lon="11.547631755696376"><ele>5.0</ele><time>2026-05-03T07:44:44.999Z</time></trkpt><trkpt lat="44.75587031077619" lon="11.547836511267416"><ele>5.0</ele><time>2026-05-03T07:44:45.999Z</time></trkpt><trkpt lat="44.75567282824781" lon="11.548039213950183"><ele>5.5</ele><time>2026-05-03T07:44:46.999Z</time></trkpt><trkpt lat="44.755485672561946" lon="11.548231947925276"><ele>6.0</ele><time>2026-05-03T07:44:47.999Z</time></trkpt><trkpt lat="44.755299987699004" lon="11.54842184721775"><ele>6.0</ele><time>2026-05-03T07:44:48.999Z</time></trkpt><trkpt lat="44.7551143611651" lon="11.548611998883128"><ele>6.0</ele><time>2026-05-03T07:44:49.999Z</time></trkpt><trkpt lat="44.754927443381085" lon="11.548802473166523"><ele>5.666666666666667</ele><time>2026-05-03T07:44:50.999Z</time></trkpt><trkpt lat="44.75474551289779" lon="11.54898907938564"><ele>5.333333333333334</ele><time>2026-05-03T07:44:51.999Z</time></trkpt><trkpt lat="44.75456888167792" lon="11.54917048530711"><ele>5.0</ele><time>2026-05-03T07:44:52.999Z</time></trkpt><trkpt lat="44.75439925035521" lon="11.549348678701522"><ele>4.666666666666667</ele><time>2026-05-03T07:44:53.999Z</time></trkpt><trkpt lat="44.75423113300015" lon="11.549525048355292"><ele>4.333333333333333</ele><time>2026-05-03T07:44:54.999Z</time></trkpt><trkpt lat="44.7540643121296" lon="11.54970518210423"><ele>4.0</ele><time>2026-05-03T07:44:55.999Z</time></trkpt><trkpt lat="44.75389724126293" lon="11.549894759240026"><ele>4.0</ele><time>2026-05-03T07:44:56.999Z</time></trkpt><trkpt lat="44.75371910218144" lon="11.550091315374218"><ele>4.0</ele><time>2026-05-03T07:44:57.999Z</time></trkpt><trkpt lat="44.7535188381921" lon="11.550280636053861"><ele>4.0</ele><time>2026-05-03T07:44:58.999Z</time></trkpt><trkpt lat="44.75330817709302" lon="11.55048430816108"><ele>4.0</ele><time>2026-05-03T07:44:59.999Z</time></trkpt><trkpt lat="44.75309301573889" lon="11.550697411808311"><ele>4.0</ele><time>2026-05-03T07:45:00.999Z</time></trkpt><trkpt lat="44.75287665220435" lon="11.550918043896662"><ele>4.0</ele><time>2026-05-03T07:45:01.999Z</time></trkpt><trkpt lat="44.75265825188567" lon="11.551135281671506"><ele>4.0</ele><time>2026-05-03T07:45:02.999Z</time></trkpt><trkpt lat="44.752437839969765" lon="11.55135738959084"><ele>4.0</ele><time>2026-05-03T07:45:03.999Z</time></trkpt><trkpt lat="44.752218118321565" lon="11.551577958305257"><ele>4.0</ele><time>2026-05-03T07:45:04.999Z</time></trkpt><trkpt lat="44.75200026620119" lon="11.551800675349675"><ele>4.0</ele><time>2026-05-03T07:45:05.999Z</time></trkpt><trkpt lat="44.751780604365514" lon="11.552022879125314"><ele>4.0</ele><time>2026-05-03T07:45:06.999Z</time></trkpt><trkpt lat="44.75156722034014" lon="11.552245787287552"><ele>4.0</ele><time>2026-05-03T07:45:07.999Z</time></trkpt><trkpt lat="44.75135766171903" lon="11.552462582962821"><ele>4.0</ele><time>2026-05-03T07:45:08.999Z</time></trkpt><trkpt lat="44.751142883362256" lon="11.552674741108193"><ele>4.0</ele><time>2026-05-03T07:45:09.999Z</time></trkpt><trkpt lat="44.7509407001503" lon="11.552883600574594"><ele>5.0</ele><time>2026-05-03T07:45:10.999Z</time></trkpt><trkpt lat="44.750734507181924" lon="11.553092009637991"><ele>6.0</ele><time>2026-05-03T07:45:12Z</time></trkpt><trkpt lat="44.75053212535812" lon="11.553297716008268"><ele>6.0</ele><time>2026-05-03T07:45:13Z</time></trkpt><trkpt lat="44.7503258846359" lon="11.553508526340405"><ele>6.0</ele><time>2026-05-03T07:45:14Z</time></trkpt><trkpt lat="44.75012019331125" lon="11.553720540759265"><ele>5.5</ele><time>2026-05-03T07:45:15Z</time></trkpt><trkpt lat="44.74991280855459" lon="11.55393464322959"><ele>5.0</ele><time>2026-05-03T07:45:16Z</time></trkpt><trkpt lat="44.74970357116032" lon="11.554146711767826"><ele>5.0</ele><time>2026-05-03T07:45:17Z</time></trkpt><trkpt lat="44.74948954992447" lon="11.554363855023416"><ele>5.0</ele><time>2026-05-03T07:45:18Z</time></trkpt><trkpt lat="44.74927490413324" lon="11.55458485805062"><ele>3.5</ele><time>2026-05-03T07:45:19Z</time></trkpt><trkpt lat="44.74905898721859" lon="11.554802904625507"><ele>2.0</ele><time>2026-05-03T07:45:20Z</time></trkpt><trkpt lat="44.74884721343524" lon="11.555022290555383"><ele>2.0</ele><time>2026-05-03T07:45:21Z</time></trkpt><trkpt lat="44.74863333027471" lon="11.55523966645213"><ele>2.0</ele><time>2026-05-03T07:45:22Z</time></trkpt><trkpt lat="44.748420127106776" lon="11.555458389817288"><ele>3.0</ele><time>2026-05-03T07:45:23Z</time></trkpt><trkpt lat="44.74820907967257" lon="11.555674262860787"><ele>4.0</ele><time>2026-05-03T07:45:24Z</time></trkpt><trkpt lat="44.748000592391314" lon="11.555889336344846"><ele>4.0</ele><time>2026-05-03T07:45:25Z</time></trkpt><trkpt lat="44.74778945012612" lon="11.556104621003543"><ele>4.0</ele><time>2026-05-03T07:45:26Z</time></trkpt><trkpt lat="44.74757586721508" lon="11.55631830299975"><ele>3.5</ele><time>2026-05-03T07:45:27Z</time></trkpt><trkpt lat="44.74736917506832" lon="11.55652725457611"><ele>3.0</ele><time>2026-05-03T07:45:28Z</time></trkpt><trkpt lat="44.7471565585634" lon="11.556742479688813"><ele>3.0</ele><time>2026-05-03T07:45:29Z</time></trkpt><trkpt lat="44.7469475034387" lon="11.556954177727743"><ele>3.0</ele><time>2026-05-03T07:45:30Z</time></trkpt><trkpt lat="44.74673648962483" lon="11.557168076822146"><ele>3.5</ele><time>2026-05-03T07:45:31Z</time></trkpt><trkpt lat="44.74652531760452" lon="11.557383086919613"><ele>4.0</ele><time>2026-05-03T07:45:32Z</time></trkpt><trkpt lat="44.74631898624093" lon="11.557594210653685"><ele>4.0</ele><time>2026-05-03T07:45:33Z</time></trkpt><trkpt lat="44.746115387128405" lon="11.557804181478499"><ele>4.0</ele><time>2026-05-03T07:45:34Z</time></trkpt><trkpt lat="44.7459161975574" lon="11.558007817600226"><ele>6.5</ele><time>2026-05-03T07:45:35Z</time></trkpt><trkpt lat="44.74571903858283" lon="11.5582133896793"><ele>9.0</ele><time>2026-05-03T07:45:36Z</time></trkpt><trkpt lat="44.745522012173" lon="11.558416028713369"><ele>9.0</ele><time>2026-05-03T07:45:37Z</time></trkpt><trkpt lat="44.74532708666892" lon="11.558612336551295"><ele>9.0</ele><time>2026-05-03T07:45:38Z</time></trkpt><trkpt lat="44.74513395632576" lon="11.558806743611829"><ele>8.5</ele><time>2026-05-03T07:45:39Z</time></trkpt><trkpt lat="44.744945949452635" lon="11.559000127459807"><ele>8.0</ele><time>2026-05-03T07:45:40Z</time></trkpt><trkpt lat="44.744763402786155" lon="11.559193783277921"><ele>8.0</ele><time>2026-05-03T07:45:41Z</time></trkpt><trkpt lat="44.744580570290736" lon="11.55937484698237"><ele>8.0</ele><time>2026-05-03T07:45:42Z</time></trkpt><trkpt lat="44.7443995480703" lon="11.559562431624379"><ele>8.0</ele><time>2026-05-03T07:45:43Z</time></trkpt><trkpt lat="44.74421485099104" lon="11.559748264314432"><ele>7.5</ele><time>2026-05-03T07:45:44Z</time></trkpt><trkpt lat="44.74403195951189" lon="11.559938840154215"><ele>7.0</ele><time>2026-05-03T07:45:45Z</time></trkpt><trkpt lat="44.743850695772046" lon="11.560129094269422"><ele>7.0</ele><time>2026-05-03T07:45:46Z</time></trkpt><trkpt lat="44.74367760530651" lon="11.5603020289151"><ele>7.0</ele><time>2026-05-03T07:45:47Z</time></trkpt><trkpt lat="44.74351275881055" lon="11.56046376621092"><ele>7.0</ele><time>2026-05-03T07:45:48Z</time></trkpt><trkpt lat="44.74335576422419" lon="11.560628041972679"><ele>7.333333333333334</ele><time>2026-05-03T07:45:49Z</time></trkpt><trkpt lat="44.743206587852455" lon="11.560780561140815"><ele>7.666666666666666</ele><time>2026-05-03T07:45:50Z</time></trkpt><trkpt lat="44.74307001274229" lon="11.560917393277444"><ele>8.0</ele><time>2026-05-03T07:45:51Z</time></trkpt><trkpt lat="44.742929477786255" lon="11.561064434863294"><ele>8.0</ele><time>2026-05-03T07:45:52Z</time></trkpt><trkpt lat="44.74277830416997" lon="11.561220468003905"><ele>8.0</ele><time>2026-05-03T07:45:53Z</time></trkpt><trkpt lat="44.74262490614412" lon="11.561376628019646"><ele>8.0</ele><time>2026-05-03T07:45:54Z</time></trkpt><trkpt lat="44.742468835309175" lon="11.561529164651185"><ele>8.0</ele><time>2026-05-03T07:45:55Z</time></trkpt><trkpt lat="44.74232562961724" lon="11.561669302190221"><ele>8.0</ele><time>2026-05-03T07:45:56Z</time></trkpt><trkpt lat="44.74218491084403" lon="11.561816436948972"><ele>8.0</ele><time>2026-05-03T07:45:57Z</time></trkpt><trkpt lat="44.742040880472096" lon="11.561965602270984"><ele>8.333333333333332</ele><time>2026-05-03T07:45:58Z</time></trkpt><trkpt lat="44.741895423987394" lon="11.562116342943378"><ele>8.666666666666666</ele><time>2026-05-03T07:45:59Z</time></trkpt><trkpt lat="44.741746109511574" lon="11.562268863746876"><ele>9.0</ele><time>2026-05-03T07:46:00Z</time></trkpt><trkpt lat="44.741596054156496" lon="11.562421825411407"><ele>9.0</ele><time>2026-05-03T07:46:01Z</time></trkpt><trkpt lat="44.741450678157605" lon="11.562565316978514"><ele>9.0</ele><time>2026-05-03T07:46:02Z</time></trkpt><trkpt lat="44.741307369750274" lon="11.562703429304477"><ele>9.0</ele><time>2026-05-03T07:46:03Z</time></trkpt><trkpt lat="44.741165930367714" lon="11.562850981515263"><ele>8.666666666666666</ele><time>2026-05-03T07:46:04Z</time></trkpt><trkpt lat="44.74102291863318" lon="11.563001462249034"><ele>8.333333333333332</ele><time>2026-05-03T07:46:05Z</time></trkpt><trkpt lat="44.740877646265844" lon="11.563163243588136"><ele>8.0</ele><time>2026-05-03T07:46:06Z</time></trkpt><trkpt lat="44.74073304665947" lon="11.563312594403083"><ele>8.0</ele><time>2026-05-03T07:46:07Z</time></trkpt><trkpt lat="44.74058852882599" lon="11.563458120563448"><ele>8.0</ele><time>2026-05-03T07:46:08Z</time></trkpt><trkpt lat="44.740444852860485" lon="11.563603264681287"><ele>8.0</ele><time>2026-05-03T07:46:09Z</time></trkpt><trkpt lat="44.7403034875849" lon="11.563743375451729"><ele>8.0</ele><time>2026-05-03T07:46:10Z</time></trkpt><trkpt lat="44.74016072007956" lon="11.563883637305722"><ele>8.0</ele><time>2026-05-03T07:46:11Z</time></trkpt><trkpt lat="44.740021906542175" lon="11.56402611007113"><ele>8.0</ele><time>2026-05-03T07:46:12Z</time></trkpt><trkpt lat="44.73989526990047" lon="11.564159733041675"><ele>8.0</ele><time>2026-05-03T07:46:13Z</time></trkpt><trkpt lat="44.739778098816394" lon="11.56429346048805"><ele>8.0</ele><time>2026-05-03T07:46:13.999Z</time></trkpt><trkpt lat="44.73967115092253" lon="11.564410919336806"><ele>8.0</ele><time>2026-05-03T07:46:14.999Z</time></trkpt><trkpt lat="44.73957473816513" lon="11.56451766898316"><ele>8.0</ele><time>2026-05-03T07:46:15.999Z</time></trkpt><trkpt lat="44.73947798073676" lon="11.564613283685492"><ele>8.200000000000001</ele><time>2026-05-03T07:46:16.999Z</time></trkpt><trkpt lat="44.739390088881265" lon="11.564698636058232"><ele>8.4</ele><time>2026-05-03T07:46:17.999Z</time></trkpt><trkpt lat="44.739314811413664" lon="11.564773394781525"><ele>8.600000000000001</ele><time>2026-05-03T07:46:18.999Z</time></trkpt><trkpt lat="44.73925445036805" lon="11.564825014674804"><ele>8.8</ele><time>2026-05-03T07:46:19.999Z</time></trkpt><trkpt lat="44.73916329316318" lon="11.564883628819826"><ele>9.0</ele><time>2026-05-03T07:46:21.999Z</time></trkpt><trkpt lat="44.73908876952645" lon="11.564929972476564"><ele>9.25</ele><time>2026-05-03T07:46:27.999Z</time></trkpt><trkpt lat="44.738979981116" lon="11.565030533205302"><ele>9.5</ele><time>2026-05-03T07:46:29.999Z</time></trkpt><trkpt lat="44.73889124247523" lon="11.565137707008478"><ele>9.75</ele><time>2026-05-03T07:46:30.999Z</time></trkpt><trkpt lat="44.73881654534693" lon="11.565254060380337"><ele>10.0</ele><time>2026-05-03T07:46:31.999Z</time></trkpt><trkpt lat="44.738749423059545" lon="11.565359268093315"><ele>10.0</ele><time>2026-05-03T07:46:32.999Z</time></trkpt><trkpt lat="44.73866769322846" lon="11.565466738795743"><ele>10.0</ele><time>2026-05-03T07:46:33.999Z</time></trkpt><trkpt lat="44.73857172178806" lon="11.565578873428947"><ele>10.0</ele><time>2026-05-03T07:46:34.999Z</time></trkpt><trkpt lat="44.738462844550966" lon="11.565699377251391"><ele>10.0</ele><time>2026-05-03T07:46:35.999Z</time></trkpt><trkpt lat="44.73833900094792" lon="11.565835174777074"><ele>10.0</ele><time>2026-05-03T07:46:36.999Z</time></trkpt><trkpt lat="44.73821062128257" lon="11.565970089892236"><ele>10.0</ele><time>2026-05-03T07:46:37.999Z</time></trkpt><trkpt lat="44.73807385489152" lon="11.566115455172323"><ele>10.0</ele><time>2026-05-03T07:46:38.999Z</time></trkpt><trkpt lat="44.73793506860484" lon="11.566259604228714"><ele>10.0</ele><time>2026-05-03T07:46:39.999Z</time></trkpt><trkpt lat="44.73779693400179" lon="11.566398046151463"><ele>10.0</ele><time>2026-05-03T07:46:40.999Z</time></trkpt><trkpt lat="44.737673569108274" lon="11.566527806249573"><ele>10.0</ele><time>2026-05-03T07:46:41.999Z</time></trkpt><trkpt lat="44.73754054091275" lon="11.566669843013932"><ele>10.0</ele><time>2026-05-03T07:46:42.999Z</time></trkpt><trkpt lat="44.73741174337238" lon="11.566808650953654"><ele>10.0</ele><time>2026-05-03T07:46:43.999Z</time></trkpt><trkpt lat="44.73728278561848" lon="11.56695043330883"><ele>10.0</ele><time>2026-05-03T07:46:44.999Z</time></trkpt><trkpt lat="44.7371552340242" lon="11.567092998185784"><ele>10.333333333333334</ele><time>2026-05-03T07:46:45.999Z</time></trkpt><trkpt lat="44.737027068047524" lon="11.567238757354895"><ele>10.666666666666666</ele><time>2026-05-03T07:46:46.999Z</time></trkpt><trkpt lat="44.736894581655825" lon="11.567385683822604"><ele>11.0</ele><time>2026-05-03T07:46:47.999Z</time></trkpt><trkpt lat="44.73676244324142" lon="11.567537346538929"><ele>11.0</ele><time>2026-05-03T07:46:48.999Z</time></trkpt><trkpt lat="44.736626558511844" lon="11.56769075194308"><ele>11.0</ele><time>2026-05-03T07:46:49.999Z</time></trkpt><trkpt lat="44.73649445013316" lon="11.567840660507041"><ele>11.0</ele><time>2026-05-03T07:46:50.999Z</time></trkpt><trkpt lat="44.73636937419676" lon="11.56798433632285"><ele>11.0</ele><time>2026-05-03T07:46:51.999Z</time></trkpt><trkpt lat="44.73624642772823" lon="11.568110161653651"><ele>11.0</ele><time>2026-05-03T07:46:52.999Z</time></trkpt><trkpt lat="44.73612038161214" lon="11.56824674261695"><ele>11.0</ele><time>2026-05-03T07:46:53.999Z</time></trkpt><trkpt lat="44.735994780123676" lon="11.568379117363774"><ele>11.0</ele><time>2026-05-03T07:46:54.999Z</time></trkpt><trkpt lat="44.7358633870623" lon="11.56851305066582"><ele>11.0</ele><time>2026-05-03T07:46:55.999Z</time></trkpt><trkpt lat="44.73573220015512" lon="11.568657086494627"><ele>11.0</ele><time>2026-05-03T07:46:56.999Z</time></trkpt><trkpt lat="44.735588642198444" lon="11.568817711357747"><ele>10.333333333333332</ele><time>2026-05-03T07:46:57.999Z</time></trkpt><trkpt lat="44.73543386480596" lon="11.568977912937422"><ele>9.666666666666666</ele><time>2026-05-03T07:46:58.999Z</time></trkpt><trkpt lat="44.73527106663482" lon="11.569145012890942"><ele>9.0</ele><time>2026-05-03T07:46:59.999Z</time></trkpt><trkpt lat="44.73510559893575" lon="11.569320074798728"><ele>9.0</ele><time>2026-05-03T07:47:00.999Z</time></trkpt><trkpt lat="44.734938223115684" lon="11.56949860380659"><ele>9.0</ele><time>2026-05-03T07:47:01.999Z</time></trkpt><trkpt lat="44.7347676679812" lon="11.569681148598281"><ele>9.0</ele><time>2026-05-03T07:47:02.999Z</time></trkpt><trkpt lat="44.73459663804103" lon="11.569868287571165"><ele>9.333333333333334</ele><time>2026-05-03T07:47:03.999Z</time></trkpt><trkpt lat="44.734423357755404" lon="11.57005515178879"><ele>9.666666666666668</ele><time>2026-05-03T07:47:04.999Z</time></trkpt><trkpt lat="44.73424492875722" lon="11.57024280498763"><ele>10.0</ele><time>2026-05-03T07:47:05.999Z</time></trkpt><trkpt lat="44.73406672828355" lon="11.57043348282239"><ele>10.5</ele><time>2026-05-03T07:47:06.999Z</time></trkpt><trkpt lat="44.73387993180085" lon="11.570626990763845"><ele>11.0</ele><time>2026-05-03T07:47:07.999Z</time></trkpt><trkpt lat="44.733696556114914" lon="11.570823333401604"><ele>10.0</ele><time>2026-05-03T07:47:08.999Z</time></trkpt><trkpt lat="44.733507732826325" lon="11.571018710166856"><ele>9.0</ele><time>2026-05-03T07:47:09.999Z</time></trkpt><trkpt lat="44.733325685739025" lon="11.571215235004809"><ele>9.0</ele><time>2026-05-03T07:47:10.999Z</time></trkpt><trkpt lat="44.733138836042656" lon="11.571407579872375"><ele>9.0</ele><time>2026-05-03T07:47:11.999Z</time></trkpt><trkpt lat="44.732956272782836" lon="11.571602184147295"><ele>9.0</ele><time>2026-05-03T07:47:12.999Z</time></trkpt><trkpt lat="44.73277515211327" lon="11.571808341171616"><ele>9.0</ele><time>2026-05-03T07:47:13.999Z</time></trkpt><trkpt lat="44.732595232255775" lon="11.5720072061059"><ele>9.0</ele><time>2026-05-03T07:47:14.999Z</time></trkpt><trkpt lat="44.732417635157155" lon="11.572205594185595"><ele>9.0</ele><time>2026-05-03T07:47:15.999Z</time></trkpt><trkpt lat="44.73223933882341" lon="11.572408073461707"><ele>9.0</ele><time>2026-05-03T07:47:16.999Z</time></trkpt><trkpt lat="44.732060054049896" lon="11.572612684647211"><ele>9.0</ele><time>2026-05-03T07:47:18Z</time></trkpt><trkpt lat="44.73187922902625" lon="11.572816655622791"><ele>8.5</ele><time>2026-05-03T07:47:19Z</time></trkpt><trkpt lat="44.73169139061397" lon="11.573020409846471"><ele>8.0</ele><time>2026-05-03T07:47:20Z</time></trkpt><trkpt lat="44.73149434552576" lon="11.573217951903533"><ele>8.0</ele><time>2026-05-03T07:47:21Z</time></trkpt><trkpt lat="44.731288413024664" lon="11.573404019900394"><ele>8.0</ele><time>2026-05-03T07:47:22Z</time></trkpt><trkpt lat="44.73107870508488" lon="11.573582307202946"><ele>8.0</ele><time>2026-05-03T07:47:23Z</time></trkpt><trkpt lat="44.73086930572333" lon="11.573762609503806"><ele>8.0</ele><time>2026-05-03T07:47:24Z</time></trkpt><trkpt lat="44.73065959277944" lon="11.573941659330387"><ele>8.0</ele><time>2026-05-03T07:47:25Z</time></trkpt><trkpt lat="44.73045482205569" lon="11.574125291136676"><ele>8.0</ele><time>2026-05-03T07:47:26Z</time></trkpt><trkpt lat="44.73025324579815" lon="11.574323743841049"><ele>8.0</ele><time>2026-05-03T07:47:27Z</time></trkpt><trkpt lat="44.73005855206575" lon="11.574536944946006"><ele>8.0</ele><time>2026-05-03T07:47:28Z</time></trkpt><trkpt lat="44.729870108925454" lon="11.574756220628498"><ele>8.0</ele><time>2026-05-03T07:47:29Z</time></trkpt><trkpt lat="44.72968031777505" lon="11.574978177537684"><ele>8.0</ele><time>2026-05-03T07:47:30Z</time></trkpt><trkpt lat="44.72948848005621" lon="11.575197527794188"><ele>7.5</ele><time>2026-05-03T07:47:31Z</time></trkpt><trkpt lat="44.72929507189923" lon="11.575416458140843"><ele>7.0</ele><time>2026-05-03T07:47:32Z</time></trkpt><trkpt lat="44.72909550003922" lon="11.57563359962754"><ele>7.0</ele><time>2026-05-03T07:47:33Z</time></trkpt><trkpt lat="44.72889901858069" lon="11.575843041662482"><ele>7.0</ele><time>2026-05-03T07:47:34Z</time></trkpt><trkpt lat="44.72869900816896" lon="11.576045173728922"><ele>8.0</ele><time>2026-05-03T07:47:35Z</time></trkpt><trkpt lat="44.72849802375201" lon="11.57623933081602"><ele>9.0</ele><time>2026-05-03T07:47:36Z</time></trkpt><trkpt lat="44.72828885611054" lon="11.576420184684213"><ele>9.0</ele><time>2026-05-03T07:47:37Z</time></trkpt><trkpt lat="44.728073864311156" lon="11.576580753503936"><ele>9.0</ele><time>2026-05-03T07:47:38Z</time></trkpt><trkpt lat="44.7278527157445" lon="11.576747123629145"><ele>9.0</ele><time>2026-05-03T07:47:39Z</time></trkpt><trkpt lat="44.727633578272865" lon="11.576903217824613"><ele>9.0</ele><time>2026-05-03T07:47:40Z</time></trkpt><trkpt lat="44.72741556545055" lon="11.577060539729942"><ele>9.0</ele><time>2026-05-03T07:47:41Z</time></trkpt><trkpt lat="44.727201448452604" lon="11.577231799587294"><ele>9.0</ele><time>2026-05-03T07:47:42Z</time></trkpt><trkpt lat="44.72699506146972" lon="11.577421894309271"><ele>8.5</ele><time>2026-05-03T07:47:43Z</time></trkpt><trkpt lat="44.72679249108692" lon="11.577620784713384"><ele>8.0</ele><time>2026-05-03T07:47:44Z</time></trkpt><trkpt lat="44.72658644095514" lon="11.577829444862079"><ele>8.5</ele><time>2026-05-03T07:47:45Z</time></trkpt><trkpt lat="44.726380690922355" lon="11.578039941109264"><ele>9.0</ele><time>2026-05-03T07:47:46Z</time></trkpt><trkpt lat="44.72617164218968" lon="11.578250026461744"><ele>8.5</ele><time>2026-05-03T07:47:47Z</time></trkpt><trkpt lat="44.72596314035149" lon="11.578458449863467"><ele>8.0</ele><time>2026-05-03T07:47:48Z</time></trkpt><trkpt lat="44.72575550835555" lon="11.578670413106813"><ele>8.5</ele><time>2026-05-03T07:47:49Z</time></trkpt><trkpt lat="44.72554996265192" lon="11.578882924069566"><ele>9.0</ele><time>2026-05-03T07:47:50Z</time></trkpt><trkpt lat="44.7253421163799" lon="11.579095834486274"><ele>9.0</ele><time>2026-05-03T07:47:51Z</time></trkpt><trkpt lat="44.725134527484705" lon="11.57930804202299"><ele>9.0</ele><time>2026-05-03T07:47:52Z</time></trkpt><trkpt lat="44.724928870431654" lon="11.579524820734514"><ele>9.0</ele><time>2026-05-03T07:47:53Z</time></trkpt><trkpt lat="44.724723737721284" lon="11.57974059278282"><ele>9.0</ele><time>2026-05-03T07:47:54Z</time></trkpt><trkpt lat="44.7245157694119" lon="11.5799534229514"><ele>8.0</ele><time>2026-05-03T07:47:55Z</time></trkpt><trkpt lat="44.72430821020624" lon="11.580165083415391"><ele>7.0</ele><time>2026-05-03T07:47:56Z</time></trkpt><trkpt lat="44.724100880660146" lon="11.580378936811735"><ele>7.0</ele><time>2026-05-03T07:47:57Z</time></trkpt><trkpt lat="44.72389123705607" lon="11.580587490578827"><ele>7.0</ele><time>2026-05-03T07:47:58Z</time></trkpt><trkpt lat="44.723682456423525" lon="11.580797882892888"><ele>7.0</ele><time>2026-05-03T07:47:59Z</time></trkpt><trkpt lat="44.7234732092399" lon="11.581008361080372"><ele>7.0</ele><time>2026-05-03T07:48:00Z</time></trkpt><trkpt lat="44.723264065063326" lon="11.581219957067008"><ele>7.0</ele><time>2026-05-03T07:48:01Z</time></trkpt><trkpt lat="44.72305467331476" lon="11.581430131235193"><ele>7.0</ele><time>2026-05-03T07:48:02Z</time></trkpt><trkpt lat="44.722847512988714" lon="11.581642423257591"><ele>7.5</ele><time>2026-05-03T07:48:03Z</time></trkpt><trkpt lat="44.72263950798607" lon="11.581856245296196"><ele>8.0</ele><time>2026-05-03T07:48:04Z</time></trkpt><trkpt lat="44.72243200205365" lon="11.582071949992214"><ele>8.0</ele><time>2026-05-03T07:48:05Z</time></trkpt><trkpt lat="44.72222233208585" lon="11.582287444153295"><ele>8.0</ele><time>2026-05-03T07:48:06Z</time></trkpt><trkpt lat="44.72201222049748" lon="11.58249926017674"><ele>8.0</ele><time>2026-05-03T07:48:07Z</time></trkpt><trkpt lat="44.72180290358173" lon="11.582713133767776"><ele>8.0</ele><time>2026-05-03T07:48:08Z</time></trkpt><trkpt lat="44.721592812892816" lon="11.582926793920393"><ele>8.0</ele><time>2026-05-03T07:48:09Z</time></trkpt><trkpt lat="44.72138155099611" lon="11.583138816372667"><ele>8.0</ele><time>2026-05-03T07:48:10Z</time></trkpt><trkpt lat="44.72117117753307" lon="11.583353362953977"><ele>7.5</ele><time>2026-05-03T07:48:11Z</time></trkpt><trkpt lat="44.72096169674641" lon="11.583564482987928"><ele>7.0</ele><time>2026-05-03T07:48:12Z</time></trkpt><trkpt lat="44.72075210971137" lon="11.58377546688253"><ele>7.0</ele><time>2026-05-03T07:48:13Z</time></trkpt><trkpt lat="44.72054307740967" lon="11.58398879913157"><ele>7.0</ele><time>2026-05-03T07:48:13.999Z</time></trkpt><trkpt lat="44.7203321524272" lon="11.584200720705697"><ele>7.0</ele><time>2026-05-03T07:48:14.999Z</time></trkpt><trkpt lat="44.7201211362355" lon="11.584412701152976"><ele>7.0</ele><time>2026-05-03T07:48:15.999Z</time></trkpt><trkpt lat="44.719911665972916" lon="11.584632258753627"><ele>7.0</ele><time>2026-05-03T07:48:16.999Z</time></trkpt><trkpt lat="44.71970267791431" lon="11.584849312881055"><ele>7.0</ele><time>2026-05-03T07:48:17.999Z</time></trkpt><trkpt lat="44.71949373522308" lon="11.585063765063941"><ele>6.5</ele><time>2026-05-03T07:48:18.999Z</time></trkpt><trkpt lat="44.71928341018473" lon="11.585275246284949"><ele>6.0</ele><time>2026-05-03T07:48:19.999Z</time></trkpt><trkpt lat="44.71906970617451" lon="11.585492973796057"><ele>6.0</ele><time>2026-05-03T07:48:20.999Z</time></trkpt><trkpt lat="44.71885898160297" lon="11.585708448458599"><ele>6.0</ele><time>2026-05-03T07:48:21.999Z</time></trkpt><trkpt lat="44.718647660959626" lon="11.585923209426443"><ele>5.5</ele><time>2026-05-03T07:48:22.999Z</time></trkpt><trkpt lat="44.718433829809854" lon="11.586138790427597"><ele>5.0</ele><time>2026-05-03T07:48:23.999Z</time></trkpt><trkpt lat="44.718223458485035" lon="11.586354336428778"><ele>6.0</ele><time>2026-05-03T07:48:24.999Z</time></trkpt><trkpt lat="44.718011327862854" lon="11.58657123341294"><ele>7.0</ele><time>2026-05-03T07:48:25.999Z</time></trkpt><trkpt lat="44.7177985128615" lon="11.58679115127987"><ele>7.0</ele><time>2026-05-03T07:48:26.999Z</time></trkpt><trkpt lat="44.71758417695966" lon="11.587005430131125"><ele>7.0</ele><time>2026-05-03T07:48:27.999Z</time></trkpt><trkpt lat="44.71736761313085" lon="11.587223444587739"><ele>7.0</ele><time>2026-05-03T07:48:28.999Z</time></trkpt><trkpt lat="44.717156850527935" lon="11.587443418813862"><ele>7.0</ele><time>2026-05-03T07:48:29.999Z</time></trkpt><trkpt lat="44.71694352099264" lon="11.587660543225585"><ele>6.5</ele><time>2026-05-03T07:48:30.999Z</time></trkpt><trkpt lat="44.71673126487381" lon="11.587875571619122"><ele>6.0</ele><time>2026-05-03T07:48:31.999Z</time></trkpt><trkpt lat="44.71652134049529" lon="11.58809154836581"><ele>6.0</ele><time>2026-05-03T07:48:32.999Z</time></trkpt><trkpt lat="44.71631414293866" lon="11.588304578322001"><ele>6.0</ele><time>2026-05-03T07:48:33.999Z</time></trkpt><trkpt lat="44.716106339935465" lon="11.588515502364208"><ele>6.5</ele><time>2026-05-03T07:48:34.999Z</time></trkpt><trkpt lat="44.71589982475337" lon="11.588727055486077"><ele>7.0</ele><time>2026-05-03T07:48:35.999Z</time></trkpt><trkpt lat="44.71569526287918" lon="11.588935208548419"><ele>7.0</ele><time>2026-05-03T07:48:36.999Z</time></trkpt><trkpt lat="44.715490294900476" lon="11.589143528448437"><ele>7.0</ele><time>2026-05-03T07:48:37.999Z</time></trkpt><trkpt lat="44.715288545021586" lon="11.58934837866382"><ele>6.0</ele><time>2026-05-03T07:48:38.999Z</time></trkpt><trkpt lat="44.715089491085976" lon="11.58955310642623"><ele>5.0</ele><time>2026-05-03T07:48:39.999Z</time></trkpt><trkpt lat="44.714890083304674" lon="11.58975741927164"><ele>5.0</ele><time>2026-05-03T07:48:40.999Z</time></trkpt><trkpt lat="44.714691534813994" lon="11.589957953228476"><ele>5.0</ele><time>2026-05-03T07:48:41.999Z</time></trkpt><trkpt lat="44.71449291497659" lon="11.59015908284382"><ele>5.0</ele><time>2026-05-03T07:48:42.999Z</time></trkpt><trkpt lat="44.714295570726314" lon="11.590358586267973"><ele>5.0</ele><time>2026-05-03T07:48:43.999Z</time></trkpt><trkpt lat="44.71410053965215" lon="11.590557272413928"><ele>5.0</ele><time>2026-05-03T07:48:44.999Z</time></trkpt><trkpt lat="44.71390981432108" lon="11.590755238047162"><ele>5.0</ele><time>2026-05-03T07:48:45.999Z</time></trkpt><trkpt lat="44.71371761007508" lon="11.59095389228503"><ele>5.5</ele><time>2026-05-03T07:48:46.999Z</time></trkpt><trkpt lat="44.713525385802924" lon="11.591154822413696"><ele>6.0</ele><time>2026-05-03T07:48:47.999Z</time></trkpt><trkpt lat="44.71333198932951" lon="11.591353616417146"><ele>6.0</ele><time>2026-05-03T07:48:48.999Z</time></trkpt><trkpt lat="44.71314012565463" lon="11.591551556526126"><ele>6.0</ele><time>2026-05-03T07:48:49.999Z</time></trkpt><trkpt lat="44.71294745258135" lon="11.591743472082204"><ele>6.0</ele><time>2026-05-03T07:48:50.999Z</time></trkpt><trkpt lat="44.71275034812633" lon="11.591941532722412"><ele>6.0</ele><time>2026-05-03T07:48:51.999Z</time></trkpt><trkpt lat="44.712550862795524" lon="11.592145313879577"><ele>5.5</ele><time>2026-05-03T07:48:52.999Z</time></trkpt><trkpt lat="44.71235060769583" lon="11.592348289161132"><ele>5.0</ele><time>2026-05-03T07:48:53.999Z</time></trkpt><trkpt lat="44.71214776438191" lon="11.592553552229996"><ele>5.0</ele><time>2026-05-03T07:48:54.999Z</time></trkpt><trkpt lat="44.71194039092769" lon="11.592760401269848"><ele>5.0</ele><time>2026-05-03T07:48:55.999Z</time></trkpt><trkpt lat="44.71173406011968" lon="11.592970554584545"><ele>5.0</ele><time>2026-05-03T07:48:56.999Z</time></trkpt><trkpt lat="44.711526649311764" lon="11.593185885834174"><ele>5.0</ele><time>2026-05-03T07:48:57.999Z</time></trkpt><trkpt lat="44.71131482483648" lon="11.593401701055242"><ele>5.0</ele><time>2026-05-03T07:48:58.999Z</time></trkpt><trkpt lat="44.71110316723294" lon="11.593613454285245"><ele>5.0</ele><time>2026-05-03T07:48:59.999Z</time></trkpt><trkpt lat="44.71089313055297" lon="11.593823830319419"><ele>5.5</ele><time>2026-05-03T07:49:00.999Z</time></trkpt><trkpt lat="44.71068397589826" lon="11.594036483274815"><ele>6.0</ele><time>2026-05-03T07:49:01.999Z</time></trkpt><trkpt lat="44.7104763679944" lon="11.59424751896452"><ele>6.0</ele><time>2026-05-03T07:49:02.999Z</time></trkpt><trkpt lat="44.71026682743396" lon="11.594456793467065"><ele>6.0</ele><time>2026-05-03T07:49:03.999Z</time></trkpt><trkpt lat="44.71005917366062" lon="11.594664004290145"><ele>6.0</ele><time>2026-05-03T07:49:04.999Z</time></trkpt><trkpt lat="44.70985419295192" lon="11.594876205183501"><ele>6.0</ele><time>2026-05-03T07:49:05.999Z</time></trkpt><trkpt lat="44.70964849525424" lon="11.595090986799036"><ele>6.0</ele><time>2026-05-03T07:49:06.999Z</time></trkpt><trkpt lat="44.70944263322529" lon="11.595292624948986"><ele>6.0</ele><time>2026-05-03T07:49:07.999Z</time></trkpt><trkpt lat="44.70923908460554" lon="11.595497655665422"><ele>5.5</ele><time>2026-05-03T07:49:08.999Z</time></trkpt><trkpt lat="44.709037225569894" lon="11.595705261341053"><ele>5.0</ele><time>2026-05-03T07:49:09.999Z</time></trkpt><trkpt lat="44.708836939451345" lon="11.5959098957745"><ele>5.0</ele><time>2026-05-03T07:49:10.999Z</time></trkpt><trkpt lat="44.70863877976406" lon="11.59611127242479"><ele>5.0</ele><time>2026-05-03T07:49:11.999Z</time></trkpt><trkpt lat="44.70844346616544" lon="11.596307327909821"><ele>6.0</ele><time>2026-05-03T07:49:12.999Z</time></trkpt><trkpt lat="44.708253810893346" lon="11.596497462396954"><ele>7.0</ele><time>2026-05-03T07:49:13.999Z</time></trkpt><trkpt lat="44.70806552187055" lon="11.596685535053703"><ele>7.0</ele><time>2026-05-03T07:49:14.999Z</time></trkpt><trkpt lat="44.707880876298745" lon="11.596873405482961"><ele>7.0</ele><time>2026-05-03T07:49:15.999Z</time></trkpt><trkpt lat="44.707699602417094" lon="11.597060799449876"><ele>7.0</ele><time>2026-05-03T07:49:16.999Z</time></trkpt><trkpt lat="44.70751657658257" lon="11.597244822088717"><ele>7.0</ele><time>2026-05-03T07:49:17.999Z</time></trkpt><trkpt lat="44.70733458933885" lon="11.597427103526407"><ele>7.0</ele><time>2026-05-03T07:49:18.999Z</time></trkpt><trkpt lat="44.70715842745512" lon="11.597615034712758"><ele>7.0</ele><time>2026-05-03T07:49:19.999Z</time></trkpt><trkpt lat="44.70697910281857" lon="11.597805143340793"><ele>7.0</ele><time>2026-05-03T07:49:20.999Z</time></trkpt><trkpt lat="44.7067947514123" lon="11.597992937012277"><ele>6.5</ele><time>2026-05-03T07:49:21.999Z</time></trkpt><trkpt lat="44.70661358250509" lon="11.598181612057138"><ele>6.0</ele><time>2026-05-03T07:49:22.999Z</time></trkpt><trkpt lat="44.70643064062395" lon="11.598368306269276"><ele>6.0</ele><time>2026-05-03T07:49:24Z</time></trkpt><trkpt lat="44.706258037770304" lon="11.598549700064194"><ele>6.0</ele><time>2026-05-03T07:49:25Z</time></trkpt><trkpt lat="44.70609073269521" lon="11.59871899505042"><ele>6.0</ele><time>2026-05-03T07:49:26Z</time></trkpt><trkpt lat="44.70593312017262" lon="11.598884319870784"><ele>5.666666666666667</ele><time>2026-05-03T07:49:27Z</time></trkpt><trkpt lat="44.705782088263845" lon="11.599041157335833"><ele>5.333333333333334</ele><time>2026-05-03T07:49:28Z</time></trkpt><trkpt lat="44.705633351061536" lon="11.59919547212868"><ele>5.0</ele><time>2026-05-03T07:49:29Z</time></trkpt><trkpt lat="44.705484591877806" lon="11.599344770160886"><ele>5.0</ele><time>2026-05-03T07:49:30Z</time></trkpt><trkpt lat="44.705336532713666" lon="11.599493768821022"><ele>5.0</ele><time>2026-05-03T07:49:31Z</time></trkpt><trkpt lat="44.70519627161313" lon="11.5996368017056"><ele>5.0</ele><time>2026-05-03T07:49:32Z</time></trkpt><trkpt lat="44.70506427502607" lon="11.599772930197647"><ele>5.333333333333334</ele><time>2026-05-03T07:49:33Z</time></trkpt><trkpt lat="44.70493313999579" lon="11.59990799638096"><ele>5.666666666666667</ele><time>2026-05-03T07:49:34Z</time></trkpt><trkpt lat="44.70479840280745" lon="11.60004531021982"><ele>6.0</ele><time>2026-05-03T07:49:35Z</time></trkpt><trkpt lat="44.70465945177333" lon="11.60018620360619"><ele>6.0</ele><time>2026-05-03T07:49:36Z</time></trkpt><trkpt lat="44.704518150071884" lon="11.600326652087178"><ele>6.0</ele><time>2026-05-03T07:49:37Z</time></trkpt><trkpt lat="44.704380164027825" lon="11.600471596876178"><ele>6.0</ele><time>2026-05-03T07:49:38Z</time></trkpt><trkpt lat="44.70423553076833" lon="11.600619716913476"><ele>5.666666666666667</ele><time>2026-05-03T07:49:39Z</time></trkpt><trkpt lat="44.704088844541246" lon="11.600768459840083"><ele>5.333333333333334</ele><time>2026-05-03T07:49:40Z</time></trkpt><trkpt lat="44.70393947254866" lon="11.60092105928327"><ele>5.0</ele><time>2026-05-03T07:49:41Z</time></trkpt><trkpt lat="44.70379415712226" lon="11.601069879168382"><ele>5.0</ele><time>2026-05-03T07:49:42Z</time></trkpt><trkpt lat="44.703647083074" lon="11.601217001832147"><ele>5.0</ele><time>2026-05-03T07:49:43Z</time></trkpt><trkpt lat="44.70350154388173" lon="11.60136615959197"><ele>5.0</ele><time>2026-05-03T07:49:44Z</time></trkpt><trkpt lat="44.70335329751891" lon="11.601518641822675"><ele>5.0</ele><time>2026-05-03T07:49:45Z</time></trkpt><trkpt lat="44.70320409972484" lon="11.601669379948316"><ele>5.0</ele><time>2026-05-03T07:49:46Z</time></trkpt><trkpt lat="44.70306212632471" lon="11.6018132971804"><ele>5.0</ele><time>2026-05-03T07:49:47Z</time></trkpt><trkpt lat="44.70292397316053" lon="11.601956961515189"><ele>5.333333333333334</ele><time>2026-05-03T07:49:48Z</time></trkpt><trkpt lat="44.70278449879036" lon="11.602092107490803"><ele>5.666666666666667</ele><time>2026-05-03T07:49:49Z</time></trkpt><trkpt lat="44.702652812405994" lon="11.602226958008652"><ele>6.0</ele><time>2026-05-03T07:49:50Z</time></trkpt><trkpt lat="44.702525608399256" lon="11.602361088689987"><ele>6.0</ele><time>2026-05-03T07:49:51Z</time></trkpt><trkpt lat="44.7023962711633" lon="11.60249266627039"><ele>6.0</ele><time>2026-05-03T07:49:52Z</time></trkpt><trkpt lat="44.70226361404191" lon="11.602627774859254"><ele>6.0</ele><time>2026-05-03T07:49:53Z</time></trkpt><trkpt lat="44.70213174079669" lon="11.60276659630225"><ele>6.0</ele><time>2026-05-03T07:49:54Z</time></trkpt><trkpt lat="44.70199711603284" lon="11.602903402903681"><ele>6.0</ele><time>2026-05-03T07:49:55Z</time></trkpt><trkpt lat="44.70185704647201" lon="11.603043979328437"><ele>6.0</ele><time>2026-05-03T07:49:56Z</time></trkpt><trkpt lat="44.70171659333549" lon="11.603185214171134"><ele>6.666666666666666</ele><time>2026-05-03T07:49:57Z</time></trkpt><trkpt lat="44.70157548515177" lon="11.603322689386651"><ele>7.333333333333333</ele><time>2026-05-03T07:49:58Z</time></trkpt><trkpt lat="44.7014408904982" lon="11.603455787271136"><ele>8.0</ele><time>2026-05-03T07:49:59Z</time></trkpt><trkpt lat="44.70131587931028" lon="11.603582843165878"><ele>8.0</ele><time>2026-05-03T07:50:00Z</time></trkpt><trkpt lat="44.70118842816711" lon="11.603709210648312"><ele>8.0</ele><time>2026-05-03T07:50:01Z</time></trkpt><trkpt lat="44.7010553063552" lon="11.603841984901162"><ele>8.0</ele><time>2026-05-03T07:50:02Z</time></trkpt><trkpt lat="44.70092392300877" lon="11.603976701050746"><ele>7.666666666666666</ele><time>2026-05-03T07:50:03Z</time></trkpt><trkpt lat="44.700791592431315" lon="11.604107827730182"><ele>7.333333333333334</ele><time>2026-05-03T07:50:04Z</time></trkpt><trkpt lat="44.700659951511454" lon="11.604239619061124"><ele>7.0</ele><time>2026-05-03T07:50:05Z</time></trkpt><trkpt lat="44.70052943410449" lon="11.604371891430029"><ele>6.333333333333334</ele><time>2026-05-03T07:50:06Z</time></trkpt><trkpt lat="44.70039938595531" lon="11.604503210485609"><ele>5.666666666666667</ele><time>2026-05-03T07:50:07Z</time></trkpt><trkpt lat="44.700268024182385" lon="11.604638206770652"><ele>5.0</ele><time>2026-05-03T07:50:08Z</time></trkpt><trkpt lat="44.700133714732644" lon="11.60477691033026"><ele>5.0</ele><time>2026-05-03T07:50:09Z</time></trkpt><trkpt lat="44.69999635830169" lon="11.604917964473737"><ele>5.0</ele><time>2026-05-03T07:50:10Z</time></trkpt><trkpt lat="44.69986184501024" lon="11.605056581804574"><ele>5.0</ele><time>2026-05-03T07:50:11Z</time></trkpt><trkpt lat="44.69972897392883" lon="11.60518992550988"><ele>5.0</ele><time>2026-05-03T07:50:12Z</time></trkpt><trkpt lat="44.69959218735044" lon="11.605326148795456"><ele>5.0</ele><time>2026-05-03T07:50:13Z</time></trkpt><trkpt lat="44.69945216507171" lon="11.60546361508538"><ele>5.0</ele><time>2026-05-03T07:50:14Z</time></trkpt><trkpt lat="44.69931732477132" lon="11.605594937849032"><ele>5.333333333333334</ele><time>2026-05-03T07:50:15Z</time></trkpt><trkpt lat="44.69919235539082" lon="11.605718628140542"><ele>5.666666666666667</ele><time>2026-05-03T07:50:16Z</time></trkpt><trkpt lat="44.69907194291588" lon="11.605834828656072"><ele>6.0</ele><time>2026-05-03T07:50:17Z</time></trkpt><trkpt lat="44.69894571433435" lon="11.605951034059355"><ele>6.0</ele><time>2026-05-03T07:50:18Z</time></trkpt><trkpt lat="44.69882191816869" lon="11.606077448118029"><ele>6.0</ele><time>2026-05-03T07:50:19Z</time></trkpt><trkpt lat="44.69869855151244" lon="11.606203914223137"><ele>6.0</ele><time>2026-05-03T07:50:20Z</time></trkpt><trkpt lat="44.69856829281623" lon="11.606330755596664"><ele>7.333333333333334</ele><time>2026-05-03T07:50:21Z</time></trkpt><trkpt lat="44.69843772727977" lon="11.606459983616336"><ele>8.666666666666668</ele><time>2026-05-03T07:50:21.999Z</time></trkpt><trkpt lat="44.69831288825462" lon="11.606584413385097"><ele>10.0</ele><time>2026-05-03T07:50:22.999Z</time></trkpt><trkpt lat="44.69818187783438" lon="11.606722996344095"><ele>10.0</ele><time>2026-05-03T07:50:23.999Z</time></trkpt><trkpt lat="44.69804395379814" lon="11.606871468308146"><ele>10.0</ele><time>2026-05-03T07:50:24.999Z</time></trkpt><trkpt lat="44.697900200515285" lon="11.607020113091728"><ele>10.0</ele><time>2026-05-03T07:50:25.999Z</time></trkpt><trkpt lat="44.69775372371899" lon="11.607182515538236"><ele>9.333333333333334</ele><time>2026-05-03T07:50:26.999Z</time></trkpt><trkpt lat="44.697596677324235" lon="11.607349735962904"><ele>8.666666666666666</ele><time>2026-05-03T07:50:27.999Z</time></trkpt><trkpt lat="44.697407951382175" lon="11.6075164821495"><ele>8.0</ele><time>2026-05-03T07:50:28.999Z</time></trkpt><trkpt lat="44.6972163969515" lon="11.60771148897699"><ele>7.5</ele><time>2026-05-03T07:50:29.999Z</time></trkpt><trkpt lat="44.696988467970264" lon="11.607943525924705"><ele>7.0</ele><time>2026-05-03T07:50:30.999Z</time></trkpt><trkpt lat="44.6967443847654" lon="11.60819200829793"><ele>7.0</ele><time>2026-05-03T07:50:31.999Z</time></trkpt><trkpt lat="44.696485675397874" lon="11.608484225849494"><ele>7.0</ele><time>2026-05-03T07:50:32.999Z</time></trkpt><trkpt lat="44.69619024028358" lon="11.60877140462774"><ele>7.0</ele><time>2026-05-03T07:50:33.999Z</time></trkpt><trkpt lat="44.69587988957425" lon="11.609082810957453"><ele>7.0</ele><time>2026-05-03T07:50:34.999Z</time></trkpt><trkpt lat="44.695581419979845" lon="11.60938835204334"><ele>8.5</ele><time>2026-05-03T07:50:35.999Z</time></trkpt><trkpt lat="44.695312271589366" lon="11.609659881236785"><ele>10.0</ele><time>2026-05-03T07:50:36.999Z</time></trkpt><trkpt lat="44.69503211589659" lon="11.609933791971995"><ele>10.0</ele><time>2026-05-03T07:50:37.999Z</time></trkpt><trkpt lat="44.69475619910589" lon="11.610210172165432"><ele>10.0</ele><time>2026-05-03T07:50:38.999Z</time></trkpt><trkpt lat="44.694485230791784" lon="11.61048500016967"><ele>8.0</ele><time>2026-05-03T07:50:39.999Z</time></trkpt><trkpt lat="44.69421976773184" lon="11.610756168745532"><ele>6.0</ele><time>2026-05-03T07:50:40.999Z</time></trkpt><trkpt lat="44.69395634033979" lon="11.611023226463411"><ele>6.0</ele><time>2026-05-03T07:50:41.999Z</time></trkpt><trkpt lat="44.69369162589401" lon="11.611286473018534"><ele>6.0</ele><time>2026-05-03T07:50:42.999Z</time></trkpt><trkpt lat="44.69344120064676" lon="11.61154523335474"><ele>6.0</ele><time>2026-05-03T07:50:43.999Z</time></trkpt><trkpt lat="44.693193069872855" lon="11.611797025665778"><ele>6.0</ele><time>2026-05-03T07:50:44.999Z</time></trkpt><trkpt lat="44.692960953189406" lon="11.612029566997476"><ele>5.5</ele><time>2026-05-03T07:50:45.999Z</time></trkpt><trkpt lat="44.69274573420965" lon="11.612250461858295"><ele>5.0</ele><time>2026-05-03T07:50:46.999Z</time></trkpt><trkpt lat="44.6925443493887" lon="11.612454316152292"><ele>5.0</ele><time>2026-05-03T07:50:47.999Z</time></trkpt><trkpt lat="44.6923633651609" lon="11.612642932417245"><ele>5.0</ele><time>2026-05-03T07:50:48.999Z</time></trkpt><trkpt lat="44.69219512315878" lon="11.612813467225525"><ele>5.0</ele><time>2026-05-03T07:50:49.999Z</time></trkpt><trkpt lat="44.69203389319122" lon="11.612978828890773"><ele>5.0</ele><time>2026-05-03T07:50:50.999Z</time></trkpt><trkpt lat="44.6918824952063" lon="11.61313337278366"><ele>5.0</ele><time>2026-05-03T07:50:51.999Z</time></trkpt><trkpt lat="44.69172342958113" lon="11.613296338614637"><ele>5.0</ele><time>2026-05-03T07:50:52.999Z</time></trkpt><trkpt lat="44.6915530973491" lon="11.613468332896032"><ele>5.0</ele><time>2026-05-03T07:50:53.999Z</time></trkpt><trkpt lat="44.691374115198755" lon="11.613631589405191"><ele>5.0</ele><time>2026-05-03T07:50:54.999Z</time></trkpt><trkpt lat="44.69120404518448" lon="11.6138045404317"><ele>5.0</ele><time>2026-05-03T07:50:55.999Z</time></trkpt><trkpt lat="44.691027228590826" lon="11.613984574952578"><ele>5.0</ele><time>2026-05-03T07:50:56.999Z</time></trkpt><trkpt lat="44.69084790745458" lon="11.614162269480252"><ele>5.0</ele><time>2026-05-03T07:50:57.999Z</time></trkpt><trkpt lat="44.690665898907326" lon="11.614348738201867"><ele>5.0</ele><time>2026-05-03T07:50:58.999Z</time></trkpt><trkpt lat="44.69048218754236" lon="11.614539305714645"><ele>5.0</ele><time>2026-05-03T07:50:59.999Z</time></trkpt><trkpt lat="44.69029599970492" lon="11.614731030397067"><ele>5.0</ele><time>2026-05-03T07:51:00.999Z</time></trkpt><trkpt lat="44.69010641638898" lon="11.614925578082751"><ele>5.5</ele><time>2026-05-03T07:51:01.999Z</time></trkpt><trkpt lat="44.68991305602385" lon="11.615120907975367"><ele>6.0</ele><time>2026-05-03T07:51:02.999Z</time></trkpt><trkpt lat="44.68971675446546" lon="11.615318149593568"><ele>5.5</ele><time>2026-05-03T07:51:03.999Z</time></trkpt><trkpt lat="44.68952028929289" lon="11.615518213295802"><ele>5.0</ele><time>2026-05-03T07:51:04.999Z</time></trkpt><trkpt lat="44.68932404807768" lon="11.615718279109576"><ele>4.5</ele><time>2026-05-03T07:51:05.999Z</time></trkpt><trkpt lat="44.68912443787219" lon="11.61591913693983"><ele>4.0</ele><time>2026-05-03T07:51:06.999Z</time></trkpt><trkpt lat="44.68892275507158" lon="11.616121331243715"><ele>4.0</ele><time>2026-05-03T07:51:07.999Z</time></trkpt><trkpt lat="44.688722400422755" lon="11.616324081163924"><ele>4.0</ele><time>2026-05-03T07:51:08.999Z</time></trkpt><trkpt lat="44.68852118065032" lon="11.61652659140436"><ele>5.0</ele><time>2026-05-03T07:51:09.999Z</time></trkpt><trkpt lat="44.68832295642059" lon="11.616731010708817"><ele>6.0</ele><time>2026-05-03T07:51:10.999Z</time></trkpt><trkpt lat="44.68812530511108" lon="11.616934941919787"><ele>5.5</ele><time>2026-05-03T07:51:11.999Z</time></trkpt><trkpt lat="44.687928970712726" lon="11.61713692194905"><ele>5.0</ele><time>2026-05-03T07:51:12.999Z</time></trkpt><trkpt lat="44.687732657834914" lon="11.617336499095266"><ele>5.0</ele><time>2026-05-03T07:51:13.999Z</time></trkpt><trkpt lat="44.687549842508986" lon="11.61751930006222"><ele>5.0</ele><time>2026-05-03T07:51:14.999Z</time></trkpt><trkpt lat="44.68737348286081" lon="11.61769782482621"><ele>5.0</ele><time>2026-05-03T07:51:15.999Z</time></trkpt><trkpt lat="44.6871950938867" lon="11.61788124513849"><ele>5.333333333333334</ele><time>2026-05-03T07:51:16.999Z</time></trkpt><trkpt lat="44.68701771354741" lon="11.618060690657718"><ele>5.666666666666667</ele><time>2026-05-03T07:51:17.999Z</time></trkpt><trkpt lat="44.68683842517332" lon="11.618241575970416"><ele>6.0</ele><time>2026-05-03T07:51:18.999Z</time></trkpt><trkpt lat="44.68666069184539" lon="11.618423495421744"><ele>6.333333333333334</ele><time>2026-05-03T07:51:19.999Z</time></trkpt><trkpt lat="44.68648217006213" lon="11.618605888153185"><ele>6.666666666666667</ele><time>2026-05-03T07:51:20.999Z</time></trkpt><trkpt lat="44.68630264195681" lon="11.618784940301868"><ele>7.0</ele><time>2026-05-03T07:51:21.999Z</time></trkpt><trkpt lat="44.68611998023571" lon="11.618970295504177"><ele>7.0</ele><time>2026-05-03T07:51:22.999Z</time></trkpt><trkpt lat="44.6859375430079" lon="11.6191534797122"><ele>7.0</ele><time>2026-05-03T07:51:23.999Z</time></trkpt><trkpt lat="44.68575370600857" lon="11.61934000392774"><ele>7.0</ele><time>2026-05-03T07:51:24.999Z</time></trkpt><trkpt lat="44.685570981025805" lon="11.619528344284287"><ele>7.0</ele><time>2026-05-03T07:51:25.999Z</time></trkpt><trkpt lat="44.68538507101444" lon="11.619715615803653"><ele>6.5</ele><time>2026-05-03T07:51:26.999Z</time></trkpt><trkpt lat="44.68519865887983" lon="11.619905175546593"><ele>6.0</ele><time>2026-05-03T07:51:27.999Z</time></trkpt><trkpt lat="44.68501023765685" lon="11.620098401275525"><ele>6.0</ele><time>2026-05-03T07:51:29Z</time></trkpt><trkpt lat="44.684820604179514" lon="11.620291198011458"><ele>6.0</ele><time>2026-05-03T07:51:30Z</time></trkpt><trkpt lat="44.684631046399154" lon="11.620484852166353"><ele>5.5</ele><time>2026-05-03T07:51:31Z</time></trkpt><trkpt lat="44.68443986818225" lon="11.620680807424709"><ele>5.0</ele><time>2026-05-03T07:51:32Z</time></trkpt><trkpt lat="44.68424717165812" lon="11.620875992467655"><ele>5.0</ele><time>2026-05-03T07:51:33Z</time></trkpt><trkpt lat="44.68405424406455" lon="11.621072324752246"><ele>5.0</ele><time>2026-05-03T07:51:34Z</time></trkpt><trkpt lat="44.683859769737786" lon="11.621270481920472"><ele>5.0</ele><time>2026-05-03T07:51:35Z</time></trkpt><trkpt lat="44.68366294461192" lon="11.621467247390948"><ele>5.0</ele><time>2026-05-03T07:51:36Z</time></trkpt><trkpt lat="44.683469856771964" lon="11.621666329498883"><ele>5.0</ele><time>2026-05-03T07:51:37Z</time></trkpt><trkpt lat="44.68327294224837" lon="11.621866915870282"><ele>5.0</ele><time>2026-05-03T07:51:38Z</time></trkpt><trkpt lat="44.68307567326139" lon="11.622068195424497"><ele>4.5</ele><time>2026-05-03T07:51:39Z</time></trkpt><trkpt lat="44.68287635968752" lon="11.622271469021666"><ele>4.0</ele><time>2026-05-03T07:51:40Z</time></trkpt><trkpt lat="44.682677179428495" lon="11.622473115268702"><ele>4.0</ele><time>2026-05-03T07:51:41Z</time></trkpt><trkpt lat="44.68247753316935" lon="11.622675660303425"><ele>4.0</ele><time>2026-05-03T07:51:42Z</time></trkpt><trkpt lat="44.68227464110925" lon="11.622882928953116"><ele>3.5</ele><time>2026-05-03T07:51:43Z</time></trkpt><trkpt lat="44.682069474534636" lon="11.623087901691525"><ele>3.0</ele><time>2026-05-03T07:51:44Z</time></trkpt><trkpt lat="44.681865217178185" lon="11.623292278990899"><ele>3.0</ele><time>2026-05-03T07:51:45Z</time></trkpt><trkpt lat="44.681660677534175" lon="11.623499919056892"><ele>3.0</ele><time>2026-05-03T07:51:46Z</time></trkpt><trkpt lat="44.68145637327275" lon="11.623709845560345"><ele>3.0</ele><time>2026-05-03T07:51:47Z</time></trkpt><trkpt lat="44.68125072529365" lon="11.62391986371226"><ele>3.0</ele><time>2026-05-03T07:51:48Z</time></trkpt><trkpt lat="44.6810455414168" lon="11.62412422083231"><ele>3.0</ele><time>2026-05-03T07:51:49Z</time></trkpt><trkpt lat="44.680840471429164" lon="11.624336211480928"><ele>3.0</ele><time>2026-05-03T07:51:50Z</time></trkpt><trkpt lat="44.68063462595221" lon="11.624544318758183"><ele>3.0</ele><time>2026-05-03T07:51:51Z</time></trkpt><trkpt lat="44.68042778643768" lon="11.624753649272023"><ele>3.0</ele><time>2026-05-03T07:51:52Z</time></trkpt><trkpt lat="44.68022113225687" lon="11.624962845805873"><ele>4.0</ele><time>2026-05-03T07:51:53Z</time></trkpt><trkpt lat="44.68001579488525" lon="11.625171840177304"><ele>5.0</ele><time>2026-05-03T07:51:54Z</time></trkpt><trkpt lat="44.679810665245036" lon="11.625379696441017"><ele>5.0</ele><time>2026-05-03T07:51:55Z</time></trkpt><trkpt lat="44.67960696120764" lon="11.625587489547426"><ele>5.0</ele><time>2026-05-03T07:51:56Z</time></trkpt><trkpt lat="44.67940454505058" lon="11.625795038357866"><ele>4.5</ele><time>2026-05-03T07:51:57Z</time></trkpt><trkpt lat="44.67920354087679" lon="11.626000736260144"><ele>4.0</ele><time>2026-05-03T07:51:58Z</time></trkpt><trkpt lat="44.67900414185709" lon="11.62620507206969"><ele>4.0</ele><time>2026-05-03T07:51:59Z</time></trkpt><trkpt lat="44.678806952160926" lon="11.626408497255559"><ele>4.0</ele><time>2026-05-03T07:52:00Z</time></trkpt><trkpt lat="44.678607445977775" lon="11.626609878552188"><ele>4.5</ele><time>2026-05-03T07:52:01Z</time></trkpt><trkpt lat="44.678409237355844" lon="11.626808958025128"><ele>5.0</ele><time>2026-05-03T07:52:02Z</time></trkpt><trkpt lat="44.678211646786146" lon="11.627007185959553"><ele>5.0</ele><time>2026-05-03T07:52:03Z</time></trkpt><trkpt lat="44.6780146545705" lon="11.627206427760637"><ele>5.0</ele><time>2026-05-03T07:52:04Z</time></trkpt><trkpt lat="44.67781795788066" lon="11.627407796573529"><ele>6.0</ele><time>2026-05-03T07:52:05Z</time></trkpt><trkpt lat="44.67762171504846" lon="11.627609836654605"><ele>7.0</ele><time>2026-05-03T07:52:06Z</time></trkpt><trkpt lat="44.677426169579384" lon="11.627814781907958"><ele>7.0</ele><time>2026-05-03T07:52:07Z</time></trkpt><trkpt lat="44.677228643171865" lon="11.628022587522377"><ele>7.0</ele><time>2026-05-03T07:52:08Z</time></trkpt><trkpt lat="44.677026549458866" lon="11.628229636478974"><ele>6.0</ele><time>2026-05-03T07:52:09Z</time></trkpt><trkpt lat="44.676824170503636" lon="11.62843708530449"><ele>5.0</ele><time>2026-05-03T07:52:10Z</time></trkpt><trkpt lat="44.676621808294115" lon="11.628640898355618"><ele>5.5</ele><time>2026-05-03T07:52:11Z</time></trkpt><trkpt lat="44.67641944554747" lon="11.628845963888057"><ele>6.0</ele><time>2026-05-03T07:52:12Z</time></trkpt><trkpt lat="44.676218133848955" lon="11.629052321146276"><ele>6.0</ele><time>2026-05-03T07:52:13Z</time></trkpt><trkpt lat="44.676015045787125" lon="11.629261933857698"><ele>6.0</ele><time>2026-05-03T07:52:14Z</time></trkpt><trkpt lat="44.67581364192142" lon="11.62947089916602"><ele>6.0</ele><time>2026-05-03T07:52:15Z</time></trkpt><trkpt lat="44.67561147522601" lon="11.62967989806657"><ele>6.0</ele><time>2026-05-03T07:52:16Z</time></trkpt><trkpt lat="44.675408535712094" lon="11.62988918241055"><ele>6.5</ele><time>2026-05-03T07:52:17Z</time></trkpt><trkpt lat="44.67520517337041" lon="11.630098055713082"><ele>7.0</ele><time>2026-05-03T07:52:18Z</time></trkpt><trkpt lat="44.67500324766046" lon="11.630306323279179"><ele>7.0</ele><time>2026-05-03T07:52:19Z</time></trkpt><trkpt lat="44.6748016275594" lon="11.630514343984618"><ele>7.0</ele><time>2026-05-03T07:52:20Z</time></trkpt><trkpt lat="44.67460259173983" lon="11.630724773255269"><ele>6.5</ele><time>2026-05-03T07:52:21Z</time></trkpt><trkpt lat="44.67440333012502" lon="11.63093438803962"><ele>6.0</ele><time>2026-05-03T07:52:22Z</time></trkpt><trkpt lat="44.674204127355736" lon="11.631144615390733"><ele>5.5</ele><time>2026-05-03T07:52:23Z</time></trkpt><trkpt lat="44.67400501550805" lon="11.631355753260069"><ele>5.0</ele><time>2026-05-03T07:52:23.999Z</time></trkpt><trkpt lat="44.67380613259991" lon="11.631561486481639"><ele>5.0</ele><time>2026-05-03T07:52:24.999Z</time></trkpt><trkpt lat="44.67360768321621" lon="11.631765585975698"><ele>5.0</ele><time>2026-05-03T07:52:25.999Z</time></trkpt><trkpt lat="44.6734102686978" lon="11.631967635808357"><ele>5.0</ele><time>2026-05-03T07:52:26.999Z</time></trkpt><trkpt lat="44.67321391937353" lon="11.632169881738495"><ele>5.0</ele><time>2026-05-03T07:52:27.999Z</time></trkpt><trkpt lat="44.673016181646176" lon="11.632372868873595"><ele>5.0</ele><time>2026-05-03T07:52:28.999Z</time></trkpt><trkpt lat="44.67281891170834" lon="11.632575212173029"><ele>5.0</ele><time>2026-05-03T07:52:29.999Z</time></trkpt><trkpt lat="44.67262193168527" lon="11.632776195006487"><ele>5.0</ele><time>2026-05-03T07:52:30.999Z</time></trkpt><trkpt lat="44.67242607210392" lon="11.632975328143925"><ele>5.0</ele><time>2026-05-03T07:52:31.999Z</time></trkpt><trkpt lat="44.67223039881318" lon="11.63317255256201"><ele>5.0</ele><time>2026-05-03T07:52:32.999Z</time></trkpt><trkpt lat="44.672033841610464" lon="11.633367142983179"><ele>5.0</ele><time>2026-05-03T07:52:33.999Z</time></trkpt><trkpt lat="44.67183714393592" lon="11.633563573294593"><ele>5.0</ele><time>2026-05-03T07:52:34.999Z</time></trkpt><trkpt lat="44.671642225001314" lon="11.633760634981943"><ele>5.0</ele><time>2026-05-03T07:52:35.999Z</time></trkpt><trkpt lat="44.67144494276097" lon="11.633960749241718"><ele>5.0</ele><time>2026-05-03T07:52:36.999Z</time></trkpt><trkpt lat="44.671249156283196" lon="11.634156722902988"><ele>5.0</ele><time>2026-05-03T07:52:37.999Z</time></trkpt><trkpt lat="44.67105205755254" lon="11.634353607022378"><ele>5.0</ele><time>2026-05-03T07:52:38.999Z</time></trkpt><trkpt lat="44.670855659738336" lon="11.634552867422155"><ele>5.0</ele><time>2026-05-03T07:52:39.999Z</time></trkpt><trkpt lat="44.67065870141252" lon="11.634751040183234"><ele>5.0</ele><time>2026-05-03T07:52:40.999Z</time></trkpt><trkpt lat="44.670461469627966" lon="11.634947508259629"><ele>5.0</ele><time>2026-05-03T07:52:41.999Z</time></trkpt><trkpt lat="44.67026524118345" lon="11.635147629306646"><ele>5.5</ele><time>2026-05-03T07:52:42.999Z</time></trkpt><trkpt lat="44.67006975823265" lon="11.635347027332037"><ele>6.0</ele><time>2026-05-03T07:52:43.999Z</time></trkpt><trkpt lat="44.66987445897468" lon="11.635545418837568"><ele>6.0</ele><time>2026-05-03T07:52:44.999Z</time></trkpt><trkpt lat="44.669679469354406" lon="11.635744413879918"><ele>6.0</ele><time>2026-05-03T07:52:45.999Z</time></trkpt><trkpt lat="44.669483785206914" lon="11.635942477005731"><ele>6.0</ele><time>2026-05-03T07:52:46.999Z</time></trkpt><trkpt lat="44.66928673777953" lon="11.636138455741753"><ele>6.0</ele><time>2026-05-03T07:52:47.999Z</time></trkpt><trkpt lat="44.6690928748235" lon="11.636329188295456"><ele>6.0</ele><time>2026-05-03T07:52:48.999Z</time></trkpt><trkpt lat="44.668903850397996" lon="11.6365186787607"><ele>6.0</ele><time>2026-05-03T07:52:49.999Z</time></trkpt><trkpt lat="44.66871902366474" lon="11.63670709065667"><ele>6.5</ele><time>2026-05-03T07:52:50.999Z</time></trkpt><trkpt lat="44.66853296023862" lon="11.6368956845928"><ele>7.0</ele><time>2026-05-03T07:52:51.999Z</time></trkpt><trkpt lat="44.668348138729726" lon="11.637086192837074"><ele>7.0</ele><time>2026-05-03T07:52:52.999Z</time></trkpt><trkpt lat="44.66816314211412" lon="11.637279520971319"><ele>7.0</ele><time>2026-05-03T07:52:53.999Z</time></trkpt><trkpt lat="44.66797601002072" lon="11.6374717279561"><ele>7.0</ele><time>2026-05-03T07:52:54.999Z</time></trkpt><trkpt lat="44.66778669512679" lon="11.637662466986331"><ele>7.0</ele><time>2026-05-03T07:52:55.999Z</time></trkpt><trkpt lat="44.66759416084335" lon="11.637851364853573"><ele>7.0</ele><time>2026-05-03T07:52:56.999Z</time></trkpt><trkpt lat="44.66740597027357" lon="11.638042874403217"><ele>7.0</ele><time>2026-05-03T07:52:57.999Z</time></trkpt><trkpt lat="44.667221759845276" lon="11.638226626090523"><ele>7.0</ele><time>2026-05-03T07:52:58.999Z</time></trkpt><trkpt lat="44.66704616331164" lon="11.638393220638598"><ele>7.0</ele><time>2026-05-03T07:52:59.999Z</time></trkpt><trkpt lat="44.666889633034" lon="11.638554490630266"><ele>7.0</ele><time>2026-05-03T07:53:00.999Z</time></trkpt><trkpt lat="44.666741547448915" lon="11.638707831360014"><ele>7.666666666666667</ele><time>2026-05-03T07:53:01.999Z</time></trkpt><trkpt lat="44.666599827209176" lon="11.63885362142057"><ele>8.333333333333334</ele><time>2026-05-03T07:53:02.999Z</time></trkpt><trkpt lat="44.66647550256079" lon="11.638988884363522"><ele>9.0</ele><time>2026-05-03T07:53:03.999Z</time></trkpt><trkpt lat="44.666354664394184" lon="11.639115808881753"><ele>9.0</ele><time>2026-05-03T07:53:04.999Z</time></trkpt><trkpt lat="44.6662412966977" lon="11.63923260916984"><ele>9.0</ele><time>2026-05-03T07:53:05.999Z</time></trkpt><trkpt lat="44.66613511144692" lon="11.639338237389566"><ele>9.0</ele><time>2026-05-03T07:53:06.999Z</time></trkpt><trkpt lat="44.66603584277529" lon="11.639442968505406"><ele>9.0</ele><time>2026-05-03T07:53:07.999Z</time></trkpt><trkpt lat="44.665932651895865" lon="11.639558005989961"><ele>8.0</ele><time>2026-05-03T07:53:08.999Z</time></trkpt><trkpt lat="44.66582265062189" lon="11.639677482268214"><ele>7.0</ele><time>2026-05-03T07:53:09.999Z</time></trkpt><trkpt lat="44.665702178015025" lon="11.6398002132575"><ele>6.0</ele><time>2026-05-03T07:53:10.999Z</time></trkpt><trkpt lat="44.66556858143515" lon="11.63993192174355"><ele>6.0</ele><time>2026-05-03T07:53:11.999Z</time></trkpt><trkpt lat="44.665436127072006" lon="11.640060360114699"><ele>6.0</ele><time>2026-05-03T07:53:12.999Z</time></trkpt><trkpt lat="44.66529949520429" lon="11.640196948227569"><ele>6.0</ele><time>2026-05-03T07:53:13.999Z</time></trkpt><trkpt lat="44.665156351852374" lon="11.640341743715506"><ele>6.666666666666666</ele><time>2026-05-03T07:53:14.999Z</time></trkpt><trkpt lat="44.665007569559386" lon="11.640490739444093"><ele>7.333333333333333</ele><time>2026-05-03T07:53:15.999Z</time></trkpt><trkpt lat="44.66485267433298" lon="11.6406469542761"><ele>8.0</ele><time>2026-05-03T07:53:16.999Z</time></trkpt><trkpt lat="44.66470118486404" lon="11.640797051577946"><ele>8.0</ele><time>2026-05-03T07:53:17.999Z</time></trkpt><trkpt lat="44.66454623467365" lon="11.640955534490004"><ele>8.0</ele><time>2026-05-03T07:53:18.999Z</time></trkpt><trkpt lat="44.66438934747421" lon="11.641116246592965"><ele>8.0</ele><time>2026-05-03T07:53:19.999Z</time></trkpt><trkpt lat="44.66422825808352" lon="11.64127850386695"><ele>8.333333333333332</ele><time>2026-05-03T07:53:20.999Z</time></trkpt><trkpt lat="44.66406586565032" lon="11.641445571336199"><ele>8.666666666666666</ele><time>2026-05-03T07:53:21.999Z</time></trkpt><trkpt lat="44.66390087536702" lon="11.641614145771861"><ele>9.0</ele><time>2026-05-03T07:53:22.999Z</time></trkpt><trkpt lat="44.66373340767533" lon="11.641784992722434"><ele>8.666666666666666</ele><time>2026-05-03T07:53:23.999Z</time></trkpt><trkpt lat="44.66357343968516" lon="11.641948881675637"><ele>8.333333333333332</ele><time>2026-05-03T07:53:24.999Z</time></trkpt><trkpt lat="44.6634143747416" lon="11.642113345361285"><ele>8.0</ele><time>2026-05-03T07:53:25.999Z</time></trkpt><trkpt lat="44.66325728186206" lon="11.642270788854558"><ele>8.0</ele><time>2026-05-03T07:53:26.999Z</time></trkpt><trkpt lat="44.663106606154614" lon="11.642424410602317"><ele>8.0</ele><time>2026-05-03T07:53:27.999Z</time></trkpt><trkpt lat="44.66295819445728" lon="11.64257218734012"><ele>8.0</ele><time>2026-05-03T07:53:28.999Z</time></trkpt><trkpt lat="44.66281267159243" lon="11.642721578279442"><ele>8.0</ele><time>2026-05-03T07:53:29.999Z</time></trkpt><trkpt lat="44.66267075264424" lon="11.642869437152477"><ele>8.0</ele><time>2026-05-03T07:53:30.999Z</time></trkpt><trkpt lat="44.66252768763591" lon="11.643014723457576"><ele>8.0</ele><time>2026-05-03T07:53:31.999Z</time></trkpt><trkpt lat="44.66238330584387" lon="11.643159064358208"><ele>8.0</ele><time>2026-05-03T07:53:32.999Z</time></trkpt><trkpt lat="44.66224036789607" lon="11.643302824999292"><ele>8.0</ele><time>2026-05-03T07:53:33.999Z</time></trkpt><trkpt lat="44.66210219611427" lon="11.643444521039925"><ele>8.0</ele><time>2026-05-03T07:53:35Z</time></trkpt><trkpt lat="44.66197255968244" lon="11.64357645101407"><ele>8.25</ele><time>2026-05-03T07:53:36Z</time></trkpt><trkpt lat="44.661848600152766" lon="11.643698526393724"><ele>8.5</ele><time>2026-05-03T07:53:37Z</time></trkpt><trkpt lat="44.6617357430188" lon="11.643812885565207"><ele>8.75</ele><time>2026-05-03T07:53:38Z</time></trkpt><trkpt lat="44.66162597165814" lon="11.643926858131366"><ele>9.0</ele><time>2026-05-03T07:53:39Z</time></trkpt><trkpt lat="44.66151749381809" lon="11.644035080163285"><ele>9.0</ele><time>2026-05-03T07:53:40Z</time></trkpt><trkpt lat="44.661414962091925" lon="11.644136860897094"><ele>9.0</ele><time>2026-05-03T07:53:41Z</time></trkpt><trkpt lat="44.66131830486577" lon="11.644233067934767"><ele>9.0</ele><time>2026-05-03T07:53:42Z</time></trkpt><trkpt lat="44.66122899454508" lon="11.644324029960403"><ele>9.0</ele><time>2026-05-03T07:53:43Z</time></trkpt><trkpt lat="44.66114982306561" lon="11.644406342744169"><ele>9.0</ele><time>2026-05-03T07:53:44Z</time></trkpt><trkpt lat="44.66108780953201" lon="11.644470762640006"><ele>9.0</ele><time>2026-05-03T07:53:45Z</time></trkpt><trkpt lat="44.661042327242235" lon="11.644549700532727"><ele>9.0</ele><time>2026-05-03T07:53:46Z</time></trkpt><trkpt lat="44.6610604242151" lon="11.644729995714505"><ele>9.0</ele><time>2026-05-03T07:53:48Z</time></trkpt><trkpt lat="44.66110969397176" lon="11.644808358227753"><ele>9.0</ele><time>2026-05-03T07:53:49Z</time></trkpt><trkpt lat="44.661180166246154" lon="11.64486685809395"><ele>9.0</ele><time>2026-05-03T07:53:50Z</time></trkpt><trkpt lat="44.66126923523656" lon="11.644915423324612"><ele>9.0</ele><time>2026-05-03T07:53:51Z</time></trkpt><trkpt lat="44.661369990456876" lon="11.644981214962742"><ele>9.0</ele><time>2026-05-03T07:53:52Z</time></trkpt><trkpt lat="44.66146435253404" lon="11.645051773549907"><ele>9.0</ele><time>2026-05-03T07:53:53Z</time></trkpt><trkpt lat="44.66155783645848" lon="11.645110868914502"><ele>9.0</ele><time>2026-05-03T07:53:54Z</time></trkpt><trkpt lat="44.661661307769606" lon="11.645180655031734"><ele>9.0</ele><time>2026-05-03T07:53:55Z</time></trkpt><trkpt lat="44.66177242661337" lon="11.645247315661523"><ele>9.0</ele><time>2026-05-03T07:53:56Z</time></trkpt><trkpt lat="44.66188723057754" lon="11.645316719001936"><ele>9.0</ele><time>2026-05-03T07:53:57Z</time></trkpt><trkpt lat="44.662002400556254" lon="11.645392852034835"><ele>9.0</ele><time>2026-05-03T07:53:58Z</time></trkpt><trkpt lat="44.66212132188279" lon="11.645470728423618"><ele>9.0</ele><time>2026-05-03T07:53:59Z</time></trkpt><trkpt lat="44.66224386343649" lon="11.645550271212775"><ele>9.0</ele><time>2026-05-03T07:54:00Z</time></trkpt><trkpt lat="44.66235991594014" lon="11.645628157120266"><ele>9.0</ele><time>2026-05-03T07:54:01Z</time></trkpt><trkpt lat="44.662467826697196" lon="11.645696338906603"><ele>9.0</ele><time>2026-05-03T07:54:02Z</time></trkpt><trkpt lat="44.66256467614534" lon="11.645760358584921"><ele>9.0</ele><time>2026-05-03T07:54:03Z</time></trkpt><trkpt lat="44.66265171305752" lon="11.645819181919308"><ele>9.0</ele><time>2026-05-03T07:54:04Z</time></trkpt><trkpt lat="44.66273524320158" lon="11.645872575409175"><ele>9.0</ele><time>2026-05-03T07:54:05Z</time></trkpt><trkpt lat="44.662813276124105" lon="11.645922539537734"><ele>9.0</ele><time>2026-05-03T07:54:06Z</time></trkpt><trkpt lat="44.66288619636498" lon="11.645969431398102"><ele>9.0</ele><time>2026-05-03T07:54:07Z</time></trkpt><trkpt lat="44.66294665682545" lon="11.64601524345994"><ele>9.0</ele><time>2026-05-03T07:54:08Z</time></trkpt><trkpt lat="44.66300704266237" lon="11.646055687199958"><ele>9.0</ele><time>2026-05-03T07:54:09Z</time></trkpt><trkpt lat="44.66306481044055" lon="11.646179973393314"><ele>9.2</ele><time>2026-05-03T07:54:11Z</time></trkpt><trkpt lat="44.66304691939945" lon="11.646284719060514"><ele>9.4</ele><time>2026-05-03T07:54:13Z</time></trkpt><trkpt lat="44.66299213517488" lon="11.646402006251613"><ele>9.6</ele><time>2026-05-03T07:54:15Z</time></trkpt><trkpt lat="44.66296782666963" lon="11.64653487742398"><ele>9.8</ele><time>2026-05-03T07:54:17Z</time></trkpt><trkpt lat="44.662904875197505" lon="11.646671902677454"><ele>10.0</ele><time>2026-05-03T07:54:19Z</time></trkpt><trkpt lat="44.662872716816416" lon="11.646764121345168"><ele>10.0</ele><time>2026-05-03T07:54:20Z</time></trkpt><trkpt lat="44.66284037146234" lon="11.646870993285281"><ele>10.0</ele><time>2026-05-03T07:54:21Z</time></trkpt><trkpt lat="44.662799799482706" lon="11.646978144737504"><ele>10.0</ele><time>2026-05-03T07:54:22Z</time></trkpt><trkpt lat="44.66277197297855" lon="11.647078341314797"><ele>10.0</ele><time>2026-05-03T07:54:23Z</time></trkpt><trkpt lat="44.66273967044585" lon="11.647172610910223"><ele>10.0</ele><time>2026-05-03T07:54:24Z</time></trkpt><trkpt lat="44.66270464749371" lon="11.647267849760762"><ele>10.0</ele><time>2026-05-03T07:54:25Z</time></trkpt><trkpt lat="44.66267507255184" lon="11.647360512278121"><ele>9.666666666666668</ele><time>2026-05-03T07:54:26Z</time></trkpt><trkpt lat="44.66264515868405" lon="11.647455902853899"><ele>9.333333333333334</ele><time>2026-05-03T07:54:26.999Z</time></trkpt><trkpt lat="44.662613363247445" lon="11.647545351053413"><ele>9.0</ele><time>2026-05-03T07:54:27.999Z</time></trkpt><trkpt lat="44.66258410640819" lon="11.647634261045697"><ele>8.666666666666666</ele><time>2026-05-03T07:54:28.999Z</time></trkpt><trkpt lat="44.66255808677906" lon="11.64771947598413"><ele>8.333333333333332</ele><time>2026-05-03T07:54:29.999Z</time></trkpt><trkpt lat="44.66253156758074" lon="11.647802018324157"><ele>8.0</ele><time>2026-05-03T07:54:30.999Z</time></trkpt><trkpt lat="44.66248284505063" lon="11.647946727951933"><ele>7.6000000000000005</ele><time>2026-05-03T07:54:32.999Z</time></trkpt><trkpt lat="44.66245191311644" lon="11.648055849506132"><ele>7.200000000000001</ele><time>2026-05-03T07:54:34.999Z</time></trkpt><trkpt lat="44.66242643501264" lon="11.648157872599027"><ele>6.8</ele><time>2026-05-03T07:54:38.999Z</time></trkpt><trkpt lat="44.66250355076169" lon="11.64826935044492"><ele>6.4</ele><time>2026-05-03T07:54:41.999Z</time></trkpt><trkpt lat="44.662599984415614" lon="11.648331068982861"><ele>6.0</ele><time>2026-05-03T07:54:43.999Z</time></trkpt><trkpt lat="44.662699861289404" lon="11.648393066924001"><ele>6.0</ele><time>2026-05-03T07:54:45.999Z</time></trkpt></trkseg></trk></gpx>